<?xml version="1.0" encoding="UTF-8" standalone="no" ?>
<gpx xmlns="http://www.topografix.com/GPX/1/1" xmlns:xsi="http://www.w3.org/2001/XMLSchema-instance" xsi:schemaLocation="http://www.topografix.com/GPX/1/1 http://www.topografix.com/GPX/1/1/gpx.xsd" version="1.1" creator="VisuGPX - https://www.visugpx.com">
  <metadata>
    <name>VTT Foyer rural Lévignac</name>
    <desc><![CDATA[VTT Foyer rural Lévignac.
Sortie à Bouconne]]></desc>
  </metadata>
  <trk>
    <name><![CDATA[20130424VTTFRS]]></name>
    <trkseg>
      <trkpt lat="43.66791" lon="1.19804">
        <ele>136.139481</ele>
        <time>2013-04-24T17:40:34Z</time>
      </trkpt>
      <trkpt lat="43.66782" lon="1.19797">
        <ele>136.337494</ele>
        <time>2013-04-24T17:40:54Z</time>
      </trkpt>
      <trkpt lat="43.66778" lon="1.1981">
        <ele>137.451416</ele>
        <time>2013-04-24T17:41:02Z</time>
      </trkpt>
      <trkpt lat="43.66773" lon="1.19819">
        <ele>138.422531</ele>
        <time>2013-04-24T17:41:09Z</time>
      </trkpt>
      <trkpt lat="43.66764" lon="1.19832">
        <ele>140.098465</ele>
        <time>2013-04-24T17:41:23Z</time>
      </trkpt>
      <trkpt lat="43.66758" lon="1.1984">
        <ele>141.155121</ele>
        <time>2013-04-24T17:41:33Z</time>
      </trkpt>
      <trkpt lat="43.66761" lon="1.19838">
        <ele>140.689819</ele>
        <time>2013-04-24T17:41:36Z</time>
      </trkpt>
      <trkpt lat="43.6676" lon="1.1984">
        <ele>141.020569</ele>
        <time>2013-04-24T17:41:56Z</time>
      </trkpt>
      <trkpt lat="43.6676" lon="1.19842">
        <ele>141.11528</ele>
        <time>2013-04-24T17:42:26Z</time>
      </trkpt>
      <trkpt lat="43.66767" lon="1.1983">
        <ele>139.702393</ele>
        <time>2013-04-24T17:42:31Z</time>
      </trkpt>
      <trkpt lat="43.66775" lon="1.19809">
        <ele>137.586014</ele>
        <time>2013-04-24T17:42:37Z</time>
      </trkpt>
      <trkpt lat="43.66775" lon="1.19789">
        <ele>136.397507</ele>
        <time>2013-04-24T17:42:46Z</time>
      </trkpt>
      <trkpt lat="43.66778" lon="1.19795">
        <ele>136.524994</ele>
        <time>2013-04-24T17:43:02Z</time>
      </trkpt>
      <trkpt lat="43.66778" lon="1.19795">
        <ele>136.524994</ele>
        <time>2013-04-24T17:43:05Z</time>
      </trkpt>
      <trkpt lat="43.66777" lon="1.19797">
        <ele>136.673126</ele>
        <time>2013-04-24T17:52:07Z</time>
      </trkpt>
      <trkpt lat="43.66782" lon="1.19804">
        <ele>136.753723</ele>
        <time>2013-04-24T17:52:51Z</time>
      </trkpt>
      <trkpt lat="43.66778" lon="1.19807">
        <ele>137.300552</ele>
        <time>2013-04-24T17:52:55Z</time>
      </trkpt>
      <trkpt lat="43.66773" lon="1.1982">
        <ele>138.512863</ele>
        <time>2013-04-24T17:53:04Z</time>
      </trkpt>
      <trkpt lat="43.6677" lon="1.19825">
        <ele>139.11087</ele>
        <time>2013-04-24T17:53:08Z</time>
      </trkpt>
      <trkpt lat="43.66768" lon="1.19828">
        <ele>139.418594</ele>
        <time>2013-04-24T17:53:10Z</time>
      </trkpt>
      <trkpt lat="43.66762" lon="1.19836">
        <ele>140.49855</ele>
        <time>2013-04-24T17:53:16Z</time>
      </trkpt>
      <trkpt lat="43.66761" lon="1.19839">
        <ele>140.801483</ele>
        <time>2013-04-24T17:53:18Z</time>
      </trkpt>
      <trkpt lat="43.66755" lon="1.19855">
        <ele>142.514389</ele>
        <time>2013-04-24T17:53:29Z</time>
      </trkpt>
      <trkpt lat="43.66754" lon="1.19863">
        <ele>143.266876</ele>
        <time>2013-04-24T17:53:34Z</time>
      </trkpt>
      <trkpt lat="43.66752" lon="1.19866">
        <ele>143.644379</ele>
        <time>2013-04-24T17:53:36Z</time>
      </trkpt>
      <trkpt lat="43.6675" lon="1.19878">
        <ele>144.820007</ele>
        <time>2013-04-24T17:53:43Z</time>
      </trkpt>
      <trkpt lat="43.66748" lon="1.19885">
        <ele>145.491257</ele>
        <time>2013-04-24T17:53:47Z</time>
      </trkpt>
      <trkpt lat="43.66747" lon="1.19892">
        <ele>146.285629</ele>
        <time>2013-04-24T17:53:52Z</time>
      </trkpt>
      <trkpt lat="43.6674" lon="1.19909">
        <ele>148.238754</ele>
        <time>2013-04-24T17:54:04Z</time>
      </trkpt>
      <trkpt lat="43.66738" lon="1.19923">
        <ele>149.708542</ele>
        <time>2013-04-24T17:54:13Z</time>
      </trkpt>
      <trkpt lat="43.66736" lon="1.1993">
        <ele>150.686249</ele>
        <time>2013-04-24T17:54:19Z</time>
      </trkpt>
      <trkpt lat="43.66735" lon="1.19942">
        <ele>152.207504</ele>
        <time>2013-04-24T17:54:27Z</time>
      </trkpt>
      <trkpt lat="43.66733" lon="1.19947">
        <ele>153.048752</ele>
        <time>2013-04-24T17:54:31Z</time>
      </trkpt>
      <trkpt lat="43.66732" lon="1.1995">
        <ele>153.42688</ele>
        <time>2013-04-24T17:54:33Z</time>
      </trkpt>
      <trkpt lat="43.66731" lon="1.19954">
        <ele>153.920624</ele>
        <time>2013-04-24T17:54:36Z</time>
      </trkpt>
      <trkpt lat="43.66732" lon="1.19957">
        <ele>154.186874</ele>
        <time>2013-04-24T17:54:38Z</time>
      </trkpt>
      <trkpt lat="43.66731" lon="1.19964">
        <ele>155.086868</ele>
        <time>2013-04-24T17:54:43Z</time>
      </trkpt>
      <trkpt lat="43.66729" lon="1.19972">
        <ele>156.325623</ele>
        <time>2013-04-24T17:54:49Z</time>
      </trkpt>
      <trkpt lat="43.66731" lon="1.19984">
        <ele>157.476883</ele>
        <time>2013-04-24T17:54:55Z</time>
      </trkpt>
      <trkpt lat="43.66731" lon="1.19988">
        <ele>157.938004</ele>
        <time>2013-04-24T17:54:57Z</time>
      </trkpt>
      <trkpt lat="43.66736" lon="1.20003">
        <ele>159.347244</ele>
        <time>2013-04-24T17:55:07Z</time>
      </trkpt>
      <trkpt lat="43.66739" lon="1.20016">
        <ele>160.838745</ele>
        <time>2013-04-24T17:55:16Z</time>
      </trkpt>
      <trkpt lat="43.66741" lon="1.20024">
        <ele>161.6745</ele>
        <time>2013-04-24T17:55:22Z</time>
      </trkpt>
      <trkpt lat="43.66745" lon="1.20045">
        <ele>163.83963</ele>
        <time>2013-04-24T17:55:35Z</time>
      </trkpt>
      <trkpt lat="43.66751" lon="1.2007">
        <ele>166.232498</ele>
        <time>2013-04-24T17:55:52Z</time>
      </trkpt>
      <trkpt lat="43.66757" lon="1.20088">
        <ele>167.5625</ele>
        <time>2013-04-24T17:56:03Z</time>
      </trkpt>
      <trkpt lat="43.66765" lon="1.20112">
        <ele>169.456253</ele>
        <time>2013-04-24T17:56:16Z</time>
      </trkpt>
      <trkpt lat="43.66773" lon="1.20138">
        <ele>170.854996</ele>
        <time>2013-04-24T17:56:29Z</time>
      </trkpt>
      <trkpt lat="43.66778" lon="1.20163">
        <ele>172.40625</ele>
        <time>2013-04-24T17:56:41Z</time>
      </trkpt>
      <trkpt lat="43.66781" lon="1.20171">
        <ele>172.830154</ele>
        <time>2013-04-24T17:56:45Z</time>
      </trkpt>
      <trkpt lat="43.66779" lon="1.20209">
        <ele>175.669388</ele>
        <time>2013-04-24T17:57:02Z</time>
      </trkpt>
      <trkpt lat="43.66778" lon="1.2022">
        <ele>176.713638</ele>
        <time>2013-04-24T17:57:07Z</time>
      </trkpt>
      <trkpt lat="43.66777" lon="1.20232">
        <ele>177.860962</ele>
        <time>2013-04-24T17:57:12Z</time>
      </trkpt>
      <trkpt lat="43.66777" lon="1.20272">
        <ele>180.392502</ele>
        <time>2013-04-24T17:57:27Z</time>
      </trkpt>
      <trkpt lat="43.6678" lon="1.20308">
        <ele>181.425919</ele>
        <time>2013-04-24T17:57:41Z</time>
      </trkpt>
      <trkpt lat="43.66777" lon="1.20341">
        <ele>181.942673</ele>
        <time>2013-04-24T17:57:54Z</time>
      </trkpt>
      <trkpt lat="43.6676" lon="1.20377">
        <ele>183.909607</ele>
        <time>2013-04-24T17:58:10Z</time>
      </trkpt>
      <trkpt lat="43.66744" lon="1.20396">
        <ele>185.053284</ele>
        <time>2013-04-24T17:58:22Z</time>
      </trkpt>
      <trkpt lat="43.66715" lon="1.20428">
        <ele>185.797821</ele>
        <time>2013-04-24T17:58:38Z</time>
      </trkpt>
      <trkpt lat="43.66674" lon="1.20463">
        <ele>187.523026</ele>
        <time>2013-04-24T17:58:55Z</time>
      </trkpt>
      <trkpt lat="43.66637" lon="1.20514">
        <ele>190.380966</ele>
        <time>2013-04-24T17:59:11Z</time>
      </trkpt>
      <trkpt lat="43.66609" lon="1.20567">
        <ele>193.608383</ele>
        <time>2013-04-24T17:59:28Z</time>
      </trkpt>
      <trkpt lat="43.66609" lon="1.2057">
        <ele>193.675812</ele>
        <time>2013-04-24T17:59:29Z</time>
      </trkpt>
      <trkpt lat="43.66626" lon="1.20628">
        <ele>192.898132</ele>
        <time>2013-04-24T17:59:44Z</time>
      </trkpt>
      <trkpt lat="43.66628" lon="1.20638">
        <ele>192.48938</ele>
        <time>2013-04-24T17:59:46Z</time>
      </trkpt>
      <trkpt lat="43.66628" lon="1.20666">
        <ele>192.105621</ele>
        <time>2013-04-24T17:59:51Z</time>
      </trkpt>
      <trkpt lat="43.66626" lon="1.20684">
        <ele>192.094925</ele>
        <time>2013-04-24T17:59:54Z</time>
      </trkpt>
      <trkpt lat="43.66634" lon="1.20726">
        <ele>191.31987</ele>
        <time>2013-04-24T18:00:00Z</time>
      </trkpt>
      <trkpt lat="43.66629" lon="1.20752">
        <ele>191.332779</ele>
        <time>2013-04-24T18:00:04Z</time>
      </trkpt>
      <trkpt lat="43.66577" lon="1.20838">
        <ele>191.260147</ele>
        <time>2013-04-24T18:00:23Z</time>
      </trkpt>
      <trkpt lat="43.66544" lon="1.20928">
        <ele>190.419571</ele>
        <time>2013-04-24T18:00:39Z</time>
      </trkpt>
      <trkpt lat="43.66505" lon="1.21039">
        <ele>188.101364</ele>
        <time>2013-04-24T18:00:58Z</time>
      </trkpt>
      <trkpt lat="43.66443" lon="1.21114">
        <ele>186.863754</ele>
        <time>2013-04-24T18:01:13Z</time>
      </trkpt>
      <trkpt lat="43.66435" lon="1.21125">
        <ele>186.853745</ele>
        <time>2013-04-24T18:01:15Z</time>
      </trkpt>
      <trkpt lat="43.6638" lon="1.21233">
        <ele>185.345001</ele>
        <time>2013-04-24T18:01:34Z</time>
      </trkpt>
      <trkpt lat="43.66362" lon="1.21274">
        <ele>184.427505</ele>
        <time>2013-04-24T18:01:44Z</time>
      </trkpt>
      <trkpt lat="43.66362" lon="1.21283">
        <ele>184.132492</ele>
        <time>2013-04-24T18:01:55Z</time>
      </trkpt>
      <trkpt lat="43.66361" lon="1.21287">
        <ele>184.041245</ele>
        <time>2013-04-24T18:03:27Z</time>
      </trkpt>
      <trkpt lat="43.66346" lon="1.21293">
        <ele>184.379074</ele>
        <time>2013-04-24T18:03:36Z</time>
      </trkpt>
      <trkpt lat="43.66349" lon="1.213">
        <ele>184.134995</ele>
        <time>2013-04-24T18:03:38Z</time>
      </trkpt>
      <trkpt lat="43.66343" lon="1.21349">
        <ele>183.619995</ele>
        <time>2013-04-24T18:03:49Z</time>
      </trkpt>
      <trkpt lat="43.66342" lon="1.21355">
        <ele>183.578125</ele>
        <time>2013-04-24T18:03:50Z</time>
      </trkpt>
      <trkpt lat="43.66342" lon="1.21368">
        <ele>183.395004</ele>
        <time>2013-04-24T18:03:52Z</time>
      </trkpt>
      <trkpt lat="43.66336" lon="1.21394">
        <ele>183.252502</ele>
        <time>2013-04-24T18:03:56Z</time>
      </trkpt>
      <trkpt lat="43.66311" lon="1.21425">
        <ele>183.862045</ele>
        <time>2013-04-24T18:04:04Z</time>
      </trkpt>
      <trkpt lat="43.66295" lon="1.2144">
        <ele>184.011871</ele>
        <time>2013-04-24T18:04:10Z</time>
      </trkpt>
      <trkpt lat="43.6629" lon="1.21451">
        <ele>183.936874</ele>
        <time>2013-04-24T18:04:13Z</time>
      </trkpt>
      <trkpt lat="43.6627" lon="1.21472">
        <ele>184.053131</ele>
        <time>2013-04-24T18:04:20Z</time>
      </trkpt>
      <trkpt lat="43.66249" lon="1.21462">
        <ele>184.151001</ele>
        <time>2013-04-24T18:04:26Z</time>
      </trkpt>
      <trkpt lat="43.66209" lon="1.21463">
        <ele>183.281021</ele>
        <time>2013-04-24T18:04:38Z</time>
      </trkpt>
      <trkpt lat="43.66206" lon="1.21463">
        <ele>183.052139</ele>
        <time>2013-04-24T18:04:39Z</time>
      </trkpt>
      <trkpt lat="43.66193" lon="1.21461">
        <ele>182.566864</ele>
        <time>2013-04-24T18:04:42Z</time>
      </trkpt>
      <trkpt lat="43.66167" lon="1.21452">
        <ele>181.614746</ele>
        <time>2013-04-24T18:04:48Z</time>
      </trkpt>
      <trkpt lat="43.66149" lon="1.21436">
        <ele>181.57135</ele>
        <time>2013-04-24T18:04:55Z</time>
      </trkpt>
      <trkpt lat="43.66135" lon="1.21446">
        <ele>179.232758</ele>
        <time>2013-04-24T18:05:01Z</time>
      </trkpt>
      <trkpt lat="43.66115" lon="1.21457">
        <ele>175.250122</ele>
        <time>2013-04-24T18:05:10Z</time>
      </trkpt>
      <trkpt lat="43.66099" lon="1.21448">
        <ele>174.250992</ele>
        <time>2013-04-24T18:05:15Z</time>
      </trkpt>
      <trkpt lat="43.66079" lon="1.21441">
        <ele>172.574646</ele>
        <time>2013-04-24T18:05:20Z</time>
      </trkpt>
      <trkpt lat="43.6605" lon="1.21429">
        <ele>170.711472</ele>
        <time>2013-04-24T18:05:28Z</time>
      </trkpt>
      <trkpt lat="43.66048" lon="1.2143">
        <ele>170.47847</ele>
        <time>2013-04-24T18:05:30Z</time>
      </trkpt>
      <trkpt lat="43.6607" lon="1.21452">
        <ele>170.990128</ele>
        <time>2013-04-24T18:05:41Z</time>
      </trkpt>
      <trkpt lat="43.66086" lon="1.21467">
        <ele>170.637985</ele>
        <time>2013-04-24T18:05:48Z</time>
      </trkpt>
      <trkpt lat="43.66089" lon="1.21479">
        <ele>169.804901</ele>
        <time>2013-04-24T18:05:52Z</time>
      </trkpt>
      <trkpt lat="43.66096" lon="1.21494">
        <ele>169.543579</ele>
        <time>2013-04-24T18:05:57Z</time>
      </trkpt>
      <trkpt lat="43.66104" lon="1.21503">
        <ele>169.808151</ele>
        <time>2013-04-24T18:06:01Z</time>
      </trkpt>
      <trkpt lat="43.66113" lon="1.21515">
        <ele>169.717499</ele>
        <time>2013-04-24T18:06:05Z</time>
      </trkpt>
      <trkpt lat="43.66129" lon="1.2155">
        <ele>167.799927</ele>
        <time>2013-04-24T18:06:14Z</time>
      </trkpt>
      <trkpt lat="43.66137" lon="1.21584">
        <ele>167.140732</ele>
        <time>2013-04-24T18:06:23Z</time>
      </trkpt>
      <trkpt lat="43.66137" lon="1.21593">
        <ele>166.850876</ele>
        <time>2013-04-24T18:06:32Z</time>
      </trkpt>
      <trkpt lat="43.66135" lon="1.21591">
        <ele>166.736023</ele>
        <time>2013-04-24T18:06:41Z</time>
      </trkpt>
      <trkpt lat="43.66137" lon="1.21593">
        <ele>166.78566</ele>
        <time>2013-04-24T18:06:50Z</time>
      </trkpt>
      <trkpt lat="43.66138" lon="1.21594">
        <ele>166.852844</ele>
        <time>2013-04-24T18:07:02Z</time>
      </trkpt>
      <trkpt lat="43.66135" lon="1.21592">
        <ele>166.696609</ele>
        <time>2013-04-24T18:07:06Z</time>
      </trkpt>
      <trkpt lat="43.6613" lon="1.21594">
        <ele>166.511337</ele>
        <time>2013-04-24T18:07:20Z</time>
      </trkpt>
      <trkpt lat="43.66127" lon="1.21593">
        <ele>166.60672</ele>
        <time>2013-04-24T18:07:24Z</time>
      </trkpt>
      <trkpt lat="43.66125" lon="1.21607">
        <ele>166.337814</ele>
        <time>2013-04-24T18:07:36Z</time>
      </trkpt>
      <trkpt lat="43.66126" lon="1.2164">
        <ele>166.846252</ele>
        <time>2013-04-24T18:07:45Z</time>
      </trkpt>
      <trkpt lat="43.66125" lon="1.21644">
        <ele>166.961868</ele>
        <time>2013-04-24T18:07:46Z</time>
      </trkpt>
      <trkpt lat="43.66128" lon="1.21657">
        <ele>167.03688</ele>
        <time>2013-04-24T18:07:49Z</time>
      </trkpt>
      <trkpt lat="43.66141" lon="1.21673">
        <ele>167.230499</ele>
        <time>2013-04-24T18:07:53Z</time>
      </trkpt>
      <trkpt lat="43.66158" lon="1.21696">
        <ele>168.082626</ele>
        <time>2013-04-24T18:07:58Z</time>
      </trkpt>
      <trkpt lat="43.6617" lon="1.21712">
        <ele>168.122543</ele>
        <time>2013-04-24T18:08:01Z</time>
      </trkpt>
      <trkpt lat="43.66178" lon="1.21722">
        <ele>167.911697</ele>
        <time>2013-04-24T18:08:03Z</time>
      </trkpt>
      <trkpt lat="43.66188" lon="1.21731">
        <ele>167.685272</ele>
        <time>2013-04-24T18:08:05Z</time>
      </trkpt>
      <trkpt lat="43.662" lon="1.21746">
        <ele>167.596893</ele>
        <time>2013-04-24T18:08:08Z</time>
      </trkpt>
      <trkpt lat="43.66219" lon="1.21766">
        <ele>166.972916</ele>
        <time>2013-04-24T18:08:13Z</time>
      </trkpt>
      <trkpt lat="43.66232" lon="1.21786">
        <ele>166.174286</ele>
        <time>2013-04-24T18:08:17Z</time>
      </trkpt>
      <trkpt lat="43.66239" lon="1.21819">
        <ele>168.192505</ele>
        <time>2013-04-24T18:08:25Z</time>
      </trkpt>
      <trkpt lat="43.66241" lon="1.2183">
        <ele>169.035004</ele>
        <time>2013-04-24T18:08:31Z</time>
      </trkpt>
      <trkpt lat="43.66239" lon="1.21839">
        <ele>170.087494</ele>
        <time>2013-04-24T18:08:36Z</time>
      </trkpt>
      <trkpt lat="43.6624" lon="1.21849">
        <ele>171.003754</ele>
        <time>2013-04-24T18:08:40Z</time>
      </trkpt>
      <trkpt lat="43.66242" lon="1.2186">
        <ele>172.063705</ele>
        <time>2013-04-24T18:08:45Z</time>
      </trkpt>
      <trkpt lat="43.66244" lon="1.21872">
        <ele>173.647644</ele>
        <time>2013-04-24T18:08:52Z</time>
      </trkpt>
      <trkpt lat="43.66242" lon="1.21897">
        <ele>177.182892</ele>
        <time>2013-04-24T18:09:05Z</time>
      </trkpt>
      <trkpt lat="43.66242" lon="1.21905">
        <ele>178.280197</ele>
        <time>2013-04-24T18:09:10Z</time>
      </trkpt>
      <trkpt lat="43.66245" lon="1.21933">
        <ele>180.779404</ele>
        <time>2013-04-24T18:09:24Z</time>
      </trkpt>
      <trkpt lat="43.66244" lon="1.21935">
        <ele>180.937881</ele>
        <time>2013-04-24T18:09:25Z</time>
      </trkpt>
      <trkpt lat="43.66245" lon="1.21941">
        <ele>181.421875</ele>
        <time>2013-04-24T18:09:29Z</time>
      </trkpt>
      <trkpt lat="43.66246" lon="1.21957">
        <ele>182.544724</ele>
        <time>2013-04-24T18:09:38Z</time>
      </trkpt>
      <trkpt lat="43.66246" lon="1.21966">
        <ele>183.320908</ele>
        <time>2013-04-24T18:09:44Z</time>
      </trkpt>
      <trkpt lat="43.66245" lon="1.21974">
        <ele>183.976547</ele>
        <time>2013-04-24T18:09:48Z</time>
      </trkpt>
      <trkpt lat="43.66245" lon="1.21983">
        <ele>184.411255</ele>
        <time>2013-04-24T18:09:54Z</time>
      </trkpt>
      <trkpt lat="43.66246" lon="1.21991">
        <ele>184.637497</ele>
        <time>2013-04-24T18:09:58Z</time>
      </trkpt>
      <trkpt lat="43.66246" lon="1.22008">
        <ele>185.176254</ele>
        <time>2013-04-24T18:10:05Z</time>
      </trkpt>
      <trkpt lat="43.66241" lon="1.22017">
        <ele>185.688751</ele>
        <time>2013-04-24T18:10:12Z</time>
      </trkpt>
      <trkpt lat="43.66239" lon="1.22017">
        <ele>185.759995</ele>
        <time>2013-04-24T18:10:29Z</time>
      </trkpt>
      <trkpt lat="43.66239" lon="1.22017">
        <ele>185.759995</ele>
        <time>2013-04-24T18:11:03Z</time>
      </trkpt>
      <trkpt lat="43.66239" lon="1.22017">
        <ele>185.748749</ele>
        <time>2013-04-24T18:11:34Z</time>
      </trkpt>
      <trkpt lat="43.66214" lon="1.2201">
        <ele>186.347336</ele>
        <time>2013-04-24T18:11:46Z</time>
      </trkpt>
      <trkpt lat="43.66175" lon="1.21988">
        <ele>187.293701</ele>
        <time>2013-04-24T18:12:00Z</time>
      </trkpt>
      <trkpt lat="43.66132" lon="1.21971">
        <ele>188.866943</ele>
        <time>2013-04-24T18:12:14Z</time>
      </trkpt>
      <trkpt lat="43.661" lon="1.21964">
        <ele>189.518204</ele>
        <time>2013-04-24T18:12:24Z</time>
      </trkpt>
      <trkpt lat="43.66053" lon="1.21951">
        <ele>190.749649</ele>
        <time>2013-04-24T18:12:38Z</time>
      </trkpt>
      <trkpt lat="43.66004" lon="1.21941">
        <ele>192.558929</ele>
        <time>2013-04-24T18:12:52Z</time>
      </trkpt>
      <trkpt lat="43.65965" lon="1.21948">
        <ele>193.727188</ele>
        <time>2013-04-24T18:13:02Z</time>
      </trkpt>
      <trkpt lat="43.6592" lon="1.21977">
        <ele>193.095078</ele>
        <time>2013-04-24T18:13:13Z</time>
      </trkpt>
      <trkpt lat="43.65887" lon="1.22008">
        <ele>191.294998</ele>
        <time>2013-04-24T18:13:23Z</time>
      </trkpt>
      <trkpt lat="43.65876" lon="1.22022">
        <ele>190.645813</ele>
        <time>2013-04-24T18:13:31Z</time>
      </trkpt>
      <trkpt lat="43.65855" lon="1.22046">
        <ele>190.002258</ele>
        <time>2013-04-24T18:13:41Z</time>
      </trkpt>
      <trkpt lat="43.65844" lon="1.22057">
        <ele>189.496521</ele>
        <time>2013-04-24T18:13:45Z</time>
      </trkpt>
      <trkpt lat="43.6582" lon="1.22074">
        <ele>189.130219</ele>
        <time>2013-04-24T18:13:55Z</time>
      </trkpt>
      <trkpt lat="43.65811" lon="1.22082">
        <ele>189.008484</ele>
        <time>2013-04-24T18:13:59Z</time>
      </trkpt>
      <trkpt lat="43.65797" lon="1.22109">
        <ele>188.585159</ele>
        <time>2013-04-24T18:14:07Z</time>
      </trkpt>
      <trkpt lat="43.65777" lon="1.2212">
        <ele>188.834656</ele>
        <time>2013-04-24T18:14:13Z</time>
      </trkpt>
      <trkpt lat="43.65741" lon="1.22149">
        <ele>189.420837</ele>
        <time>2013-04-24T18:14:25Z</time>
      </trkpt>
      <trkpt lat="43.65726" lon="1.22162">
        <ele>189.870621</ele>
        <time>2013-04-24T18:14:30Z</time>
      </trkpt>
      <trkpt lat="43.65728" lon="1.22182">
        <ele>190.153748</ele>
        <time>2013-04-24T18:14:35Z</time>
      </trkpt>
      <trkpt lat="43.65746" lon="1.22211">
        <ele>190.451614</ele>
        <time>2013-04-24T18:14:43Z</time>
      </trkpt>
      <trkpt lat="43.65766" lon="1.22214">
        <ele>190.26059</ele>
        <time>2013-04-24T18:14:52Z</time>
      </trkpt>
      <trkpt lat="43.65777" lon="1.22217">
        <ele>190.230072</ele>
        <time>2013-04-24T18:15:05Z</time>
      </trkpt>
      <trkpt lat="43.65797" lon="1.22222">
        <ele>190.416916</ele>
        <time>2013-04-24T18:15:10Z</time>
      </trkpt>
      <trkpt lat="43.65842" lon="1.2222">
        <ele>189.780716</ele>
        <time>2013-04-24T18:15:21Z</time>
      </trkpt>
      <trkpt lat="43.65859" lon="1.2222">
        <ele>189.326721</ele>
        <time>2013-04-24T18:15:25Z</time>
      </trkpt>
      <trkpt lat="43.65897" lon="1.22231">
        <ele>187.54451</ele>
        <time>2013-04-24T18:15:35Z</time>
      </trkpt>
      <trkpt lat="43.65923" lon="1.22241">
        <ele>185.924408</ele>
        <time>2013-04-24T18:15:42Z</time>
      </trkpt>
      <trkpt lat="43.65938" lon="1.22264">
        <ele>185.81485</ele>
        <time>2013-04-24T18:15:47Z</time>
      </trkpt>
      <trkpt lat="43.65952" lon="1.22292">
        <ele>185.751999</ele>
        <time>2013-04-24T18:15:53Z</time>
      </trkpt>
      <trkpt lat="43.65961" lon="1.22307">
        <ele>184.89682</ele>
        <time>2013-04-24T18:15:56Z</time>
      </trkpt>
      <trkpt lat="43.65983" lon="1.22326">
        <ele>183.254196</ele>
        <time>2013-04-24T18:16:01Z</time>
      </trkpt>
      <trkpt lat="43.66015" lon="1.2234">
        <ele>181.423401</ele>
        <time>2013-04-24T18:16:09Z</time>
      </trkpt>
      <trkpt lat="43.66019" lon="1.22342">
        <ele>181.300186</ele>
        <time>2013-04-24T18:16:10Z</time>
      </trkpt>
      <trkpt lat="43.6603" lon="1.22348">
        <ele>180.892044</ele>
        <time>2013-04-24T18:16:13Z</time>
      </trkpt>
      <trkpt lat="43.66057" lon="1.2236">
        <ele>180.348572</ele>
        <time>2013-04-24T18:16:21Z</time>
      </trkpt>
      <trkpt lat="43.66063" lon="1.2236">
        <ele>180.35733</ele>
        <time>2013-04-24T18:16:23Z</time>
      </trkpt>
      <trkpt lat="43.66103" lon="1.22383">
        <ele>183.134995</ele>
        <time>2013-04-24T18:16:36Z</time>
      </trkpt>
      <trkpt lat="43.66108" lon="1.22386">
        <ele>183.565002</ele>
        <time>2013-04-24T18:16:38Z</time>
      </trkpt>
      <trkpt lat="43.66125" lon="1.22404">
        <ele>185.934998</ele>
        <time>2013-04-24T18:16:48Z</time>
      </trkpt>
      <trkpt lat="43.66142" lon="1.22424">
        <ele>187.611252</ele>
        <time>2013-04-24T18:16:59Z</time>
      </trkpt>
      <trkpt lat="43.66148" lon="1.22439">
        <ele>188.156876</ele>
        <time>2013-04-24T18:17:06Z</time>
      </trkpt>
      <trkpt lat="43.66173" lon="1.22463">
        <ele>188.830002</ele>
        <time>2013-04-24T18:17:19Z</time>
      </trkpt>
      <trkpt lat="43.66208" lon="1.22479">
        <ele>188.671173</ele>
        <time>2013-04-24T18:17:31Z</time>
      </trkpt>
      <trkpt lat="43.66245" lon="1.2248">
        <ele>187.976257</ele>
        <time>2013-04-24T18:17:42Z</time>
      </trkpt>
      <trkpt lat="43.66284" lon="1.22478">
        <ele>187.227478</ele>
        <time>2013-04-24T18:17:52Z</time>
      </trkpt>
      <trkpt lat="43.66293" lon="1.22479">
        <ele>187.231674</ele>
        <time>2013-04-24T18:17:54Z</time>
      </trkpt>
      <trkpt lat="43.66302" lon="1.22482">
        <ele>187.258301</ele>
        <time>2013-04-24T18:17:56Z</time>
      </trkpt>
      <trkpt lat="43.66352" lon="1.22487">
        <ele>186.812943</ele>
        <time>2013-04-24T18:18:08Z</time>
      </trkpt>
      <trkpt lat="43.66367" lon="1.22485">
        <ele>186.501251</ele>
        <time>2013-04-24T18:18:12Z</time>
      </trkpt>
      <trkpt lat="43.66375" lon="1.225">
        <ele>187.005005</ele>
        <time>2013-04-24T18:18:20Z</time>
      </trkpt>
      <trkpt lat="43.66374" lon="1.22504">
        <ele>187.117493</ele>
        <time>2013-04-24T18:18:25Z</time>
      </trkpt>
      <trkpt lat="43.66376" lon="1.22508">
        <ele>187.257507</ele>
        <time>2013-04-24T18:18:30Z</time>
      </trkpt>
      <trkpt lat="43.66378" lon="1.22515">
        <ele>187.501251</ele>
        <time>2013-04-24T18:18:34Z</time>
      </trkpt>
      <trkpt lat="43.66405" lon="1.22521">
        <ele>187.698746</ele>
        <time>2013-04-24T18:18:44Z</time>
      </trkpt>
      <trkpt lat="43.66414" lon="1.2252">
        <ele>187.706253</ele>
        <time>2013-04-24T18:18:48Z</time>
      </trkpt>
      <trkpt lat="43.66416" lon="1.22518">
        <ele>187.692505</ele>
        <time>2013-04-24T18:18:54Z</time>
      </trkpt>
      <trkpt lat="43.66421" lon="1.22522">
        <ele>187.923752</ele>
        <time>2013-04-24T18:18:58Z</time>
      </trkpt>
      <trkpt lat="43.6642" lon="1.2253">
        <ele>188.184998</ele>
        <time>2013-04-24T18:19:02Z</time>
      </trkpt>
      <trkpt lat="43.6641" lon="1.22579">
        <ele>188.736328</ele>
        <time>2013-04-24T18:19:16Z</time>
      </trkpt>
      <trkpt lat="43.66414" lon="1.22643">
        <ele>188.192505</ele>
        <time>2013-04-24T18:19:32Z</time>
      </trkpt>
      <trkpt lat="43.66419" lon="1.22691">
        <ele>187.526245</ele>
        <time>2013-04-24T18:19:44Z</time>
      </trkpt>
      <trkpt lat="43.66418" lon="1.22692">
        <ele>187.480621</ele>
        <time>2013-04-24T18:19:52Z</time>
      </trkpt>
      <trkpt lat="43.66419" lon="1.22684">
        <ele>187.631882</ele>
        <time>2013-04-24T18:19:56Z</time>
      </trkpt>
      <trkpt lat="43.66419" lon="1.22673">
        <ele>187.824997</ele>
        <time>2013-04-24T18:20:00Z</time>
      </trkpt>
      <trkpt lat="43.66417" lon="1.22656">
        <ele>188.051254</ele>
        <time>2013-04-24T18:20:06Z</time>
      </trkpt>
      <trkpt lat="43.66412" lon="1.22655">
        <ele>187.987503</ele>
        <time>2013-04-24T18:20:14Z</time>
      </trkpt>
      <trkpt lat="43.66412" lon="1.22655">
        <ele>187.97937</ele>
        <time>2013-04-24T18:20:17Z</time>
      </trkpt>
      <trkpt lat="43.66416" lon="1.22668">
        <ele>187.823746</ele>
        <time>2013-04-24T18:20:22Z</time>
      </trkpt>
      <trkpt lat="43.66428" lon="1.22715">
        <ele>187.317505</ele>
        <time>2013-04-24T18:20:35Z</time>
      </trkpt>
      <trkpt lat="43.66432" lon="1.22722">
        <ele>187.308121</ele>
        <time>2013-04-24T18:20:37Z</time>
      </trkpt>
      <trkpt lat="43.6645" lon="1.22729">
        <ele>187.565002</ele>
        <time>2013-04-24T18:20:43Z</time>
      </trkpt>
      <trkpt lat="43.66492" lon="1.22723">
        <ele>188.601257</ele>
        <time>2013-04-24T18:20:53Z</time>
      </trkpt>
      <trkpt lat="43.66507" lon="1.22725">
        <ele>188.902496</ele>
        <time>2013-04-24T18:20:56Z</time>
      </trkpt>
      <trkpt lat="43.66517" lon="1.22728">
        <ele>189.056244</ele>
        <time>2013-04-24T18:20:58Z</time>
      </trkpt>
      <trkpt lat="43.66528" lon="1.22766">
        <ele>188.695633</ele>
        <time>2013-04-24T18:21:05Z</time>
      </trkpt>
      <trkpt lat="43.66528" lon="1.22772">
        <ele>188.58812</ele>
        <time>2013-04-24T18:21:06Z</time>
      </trkpt>
      <trkpt lat="43.66528" lon="1.22786">
        <ele>188.350006</ele>
        <time>2013-04-24T18:21:08Z</time>
      </trkpt>
      <trkpt lat="43.66537" lon="1.22834">
        <ele>187.76062</ele>
        <time>2013-04-24T18:21:16Z</time>
      </trkpt>
      <trkpt lat="43.66538" lon="1.22839">
        <ele>187.701248</ele>
        <time>2013-04-24T18:21:17Z</time>
      </trkpt>
      <trkpt lat="43.6654" lon="1.2285">
        <ele>187.567505</ele>
        <time>2013-04-24T18:21:27Z</time>
      </trkpt>
      <trkpt lat="43.6655" lon="1.22846">
        <ele>187.861786</ele>
        <time>2013-04-24T18:21:32Z</time>
      </trkpt>
      <trkpt lat="43.66562" lon="1.22871">
        <ele>187.572159</ele>
        <time>2013-04-24T18:21:41Z</time>
      </trkpt>
      <trkpt lat="43.66565" lon="1.22873">
        <ele>187.556107</ele>
        <time>2013-04-24T18:21:50Z</time>
      </trkpt>
      <trkpt lat="43.66566" lon="1.22881">
        <ele>187.393295</ele>
        <time>2013-04-24T18:21:58Z</time>
      </trkpt>
      <trkpt lat="43.66571" lon="1.22881">
        <ele>187.426865</ele>
        <time>2013-04-24T18:22:08Z</time>
      </trkpt>
      <trkpt lat="43.66578" lon="1.22883">
        <ele>187.392609</ele>
        <time>2013-04-24T18:22:12Z</time>
      </trkpt>
      <trkpt lat="43.66591" lon="1.22885">
        <ele>187.413895</ele>
        <time>2013-04-24T18:22:19Z</time>
      </trkpt>
      <trkpt lat="43.66603" lon="1.22884">
        <ele>187.460007</ele>
        <time>2013-04-24T18:22:29Z</time>
      </trkpt>
      <trkpt lat="43.66611" lon="1.22883">
        <ele>187.481247</ele>
        <time>2013-04-24T18:22:42Z</time>
      </trkpt>
      <trkpt lat="43.66619" lon="1.22881">
        <ele>187.53125</ele>
        <time>2013-04-24T18:22:50Z</time>
      </trkpt>
      <trkpt lat="43.66626" lon="1.2289">
        <ele>187.258743</ele>
        <time>2013-04-24T18:22:56Z</time>
      </trkpt>
      <trkpt lat="43.66636" lon="1.22893">
        <ele>187.152496</ele>
        <time>2013-04-24T18:23:02Z</time>
      </trkpt>
      <trkpt lat="43.6664" lon="1.22899">
        <ele>186.928986</ele>
        <time>2013-04-24T18:23:06Z</time>
      </trkpt>
      <trkpt lat="43.6663" lon="1.22917">
        <ele>186.130447</ele>
        <time>2013-04-24T18:23:14Z</time>
      </trkpt>
      <trkpt lat="43.66619" lon="1.22941">
        <ele>185.258209</ele>
        <time>2013-04-24T18:23:23Z</time>
      </trkpt>
      <trkpt lat="43.6662" lon="1.22961">
        <ele>184.372894</ele>
        <time>2013-04-24T18:23:30Z</time>
      </trkpt>
      <trkpt lat="43.66623" lon="1.22967">
        <ele>184.002884</ele>
        <time>2013-04-24T18:23:33Z</time>
      </trkpt>
      <trkpt lat="43.66628" lon="1.22975">
        <ele>183.447281</ele>
        <time>2013-04-24T18:23:40Z</time>
      </trkpt>
      <trkpt lat="43.66627" lon="1.22979">
        <ele>183.248734</ele>
        <time>2013-04-24T18:23:43Z</time>
      </trkpt>
      <trkpt lat="43.66626" lon="1.22983">
        <ele>183.052689</ele>
        <time>2013-04-24T18:23:45Z</time>
      </trkpt>
      <trkpt lat="43.6663" lon="1.22992">
        <ele>182.453323</ele>
        <time>2013-04-24T18:23:50Z</time>
      </trkpt>
      <trkpt lat="43.66624" lon="1.22997">
        <ele>182.412186</ele>
        <time>2013-04-24T18:23:54Z</time>
      </trkpt>
      <trkpt lat="43.66625" lon="1.23002">
        <ele>182.146713</ele>
        <time>2013-04-24T18:23:57Z</time>
      </trkpt>
      <trkpt lat="43.66633" lon="1.23017">
        <ele>180.824982</ele>
        <time>2013-04-24T18:24:03Z</time>
      </trkpt>
      <trkpt lat="43.66675" lon="1.23085">
        <ele>176.490677</ele>
        <time>2013-04-24T18:24:15Z</time>
      </trkpt>
      <trkpt lat="43.66722" lon="1.23175">
        <ele>171.496246</ele>
        <time>2013-04-24T18:24:27Z</time>
      </trkpt>
      <trkpt lat="43.66733" lon="1.23199">
        <ele>170.210007</ele>
        <time>2013-04-24T18:24:30Z</time>
      </trkpt>
      <trkpt lat="43.66743" lon="1.2322">
        <ele>169.325287</ele>
        <time>2013-04-24T18:24:33Z</time>
      </trkpt>
      <trkpt lat="43.66745" lon="1.23266">
        <ele>169.247604</ele>
        <time>2013-04-24T18:24:41Z</time>
      </trkpt>
      <trkpt lat="43.66768" lon="1.23281">
        <ele>171.027802</ele>
        <time>2013-04-24T18:24:49Z</time>
      </trkpt>
      <trkpt lat="43.66775" lon="1.23289">
        <ele>172.022827</ele>
        <time>2013-04-24T18:24:53Z</time>
      </trkpt>
      <trkpt lat="43.66779" lon="1.23296">
        <ele>172.890091</ele>
        <time>2013-04-24T18:24:56Z</time>
      </trkpt>
      <trkpt lat="43.66758" lon="1.23318">
        <ele>173.695419</ele>
        <time>2013-04-24T18:25:07Z</time>
      </trkpt>
      <trkpt lat="43.66709" lon="1.23352">
        <ele>175.262268</ele>
        <time>2013-04-24T18:25:26Z</time>
      </trkpt>
      <trkpt lat="43.6667" lon="1.23373">
        <ele>177.509491</ele>
        <time>2013-04-24T18:25:40Z</time>
      </trkpt>
      <trkpt lat="43.66638" lon="1.23392">
        <ele>180.307495</ele>
        <time>2013-04-24T18:25:52Z</time>
      </trkpt>
      <trkpt lat="43.66582" lon="1.23424">
        <ele>183.630127</ele>
        <time>2013-04-24T18:26:10Z</time>
      </trkpt>
      <trkpt lat="43.66544" lon="1.23444">
        <ele>185.503754</ele>
        <time>2013-04-24T18:26:23Z</time>
      </trkpt>
      <trkpt lat="43.66498" lon="1.2347">
        <ele>186.437195</ele>
        <time>2013-04-24T18:26:37Z</time>
      </trkpt>
      <trkpt lat="43.66447" lon="1.23496">
        <ele>187.184372</ele>
        <time>2013-04-24T18:26:52Z</time>
      </trkpt>
      <trkpt lat="43.6637" lon="1.23541">
        <ele>185.416946</ele>
        <time>2013-04-24T18:27:12Z</time>
      </trkpt>
      <trkpt lat="43.66334" lon="1.23564">
        <ele>184.71785</ele>
        <time>2013-04-24T18:27:22Z</time>
      </trkpt>
      <trkpt lat="43.6627" lon="1.23598">
        <ele>184.33252</ele>
        <time>2013-04-24T18:27:38Z</time>
      </trkpt>
      <trkpt lat="43.66207" lon="1.23635">
        <ele>184.780624</ele>
        <time>2013-04-24T18:27:54Z</time>
      </trkpt>
      <trkpt lat="43.66183" lon="1.23672">
        <ele>185.02063</ele>
        <time>2013-04-24T18:28:03Z</time>
      </trkpt>
      <trkpt lat="43.66176" lon="1.2375">
        <ele>186.09938</ele>
        <time>2013-04-24T18:28:19Z</time>
      </trkpt>
      <trkpt lat="43.66152" lon="1.23761">
        <ele>185.793747</ele>
        <time>2013-04-24T18:28:27Z</time>
      </trkpt>
      <trkpt lat="43.6615" lon="1.23764">
        <ele>185.846252</ele>
        <time>2013-04-24T18:28:28Z</time>
      </trkpt>
      <trkpt lat="43.66125" lon="1.23777">
        <ele>186.040619</ele>
        <time>2013-04-24T18:28:36Z</time>
      </trkpt>
      <trkpt lat="43.66079" lon="1.23771">
        <ele>185.98175</ele>
        <time>2013-04-24T18:28:48Z</time>
      </trkpt>
      <trkpt lat="43.6606" lon="1.23758">
        <ele>186</ele>
        <time>2013-04-24T18:28:53Z</time>
      </trkpt>
      <trkpt lat="43.66049" lon="1.23748">
        <ele>186</ele>
        <time>2013-04-24T18:28:56Z</time>
      </trkpt>
      <trkpt lat="43.66027" lon="1.23738">
        <ele>186</ele>
        <time>2013-04-24T18:29:01Z</time>
      </trkpt>
      <trkpt lat="43.65996" lon="1.23702">
        <ele>185.901276</ele>
        <time>2013-04-24T18:29:11Z</time>
      </trkpt>
      <trkpt lat="43.65969" lon="1.23669">
        <ele>186.031555</ele>
        <time>2013-04-24T18:29:20Z</time>
      </trkpt>
      <trkpt lat="43.6596" lon="1.23656">
        <ele>186.013702</ele>
        <time>2013-04-24T18:29:23Z</time>
      </trkpt>
      <trkpt lat="43.65949" lon="1.23642">
        <ele>185.820007</ele>
        <time>2013-04-24T18:29:26Z</time>
      </trkpt>
      <trkpt lat="43.65941" lon="1.23635">
        <ele>185.703751</ele>
        <time>2013-04-24T18:29:28Z</time>
      </trkpt>
      <trkpt lat="43.65923" lon="1.23636">
        <ele>185.83313</ele>
        <time>2013-04-24T18:29:32Z</time>
      </trkpt>
      <trkpt lat="43.65917" lon="1.23644">
        <ele>186.104996</ele>
        <time>2013-04-24T18:29:34Z</time>
      </trkpt>
      <trkpt lat="43.65898" lon="1.23665">
        <ele>186.752502</ele>
        <time>2013-04-24T18:29:40Z</time>
      </trkpt>
      <trkpt lat="43.65885" lon="1.23674">
        <ele>186.996582</ele>
        <time>2013-04-24T18:29:44Z</time>
      </trkpt>
      <trkpt lat="43.65865" lon="1.23693">
        <ele>187.259338</ele>
        <time>2013-04-24T18:29:50Z</time>
      </trkpt>
      <trkpt lat="43.65838" lon="1.2372">
        <ele>188</ele>
        <time>2013-04-24T18:29:59Z</time>
      </trkpt>
      <trkpt lat="43.65802" lon="1.23756">
        <ele>188</ele>
        <time>2013-04-24T18:30:10Z</time>
      </trkpt>
      <trkpt lat="43.65766" lon="1.23793">
        <ele>188.730881</ele>
        <time>2013-04-24T18:30:20Z</time>
      </trkpt>
      <trkpt lat="43.65706" lon="1.23858">
        <ele>190</ele>
        <time>2013-04-24T18:30:35Z</time>
      </trkpt>
      <trkpt lat="43.65674" lon="1.23889">
        <ele>190</ele>
        <time>2013-04-24T18:30:43Z</time>
      </trkpt>
      <trkpt lat="43.65642" lon="1.23926">
        <ele>190.617065</ele>
        <time>2013-04-24T18:30:52Z</time>
      </trkpt>
      <trkpt lat="43.65619" lon="1.23952">
        <ele>190.98848</ele>
        <time>2013-04-24T18:30:59Z</time>
      </trkpt>
      <trkpt lat="43.65582" lon="1.23988">
        <ele>191</ele>
        <time>2013-04-24T18:31:11Z</time>
      </trkpt>
      <trkpt lat="43.65562" lon="1.24008">
        <ele>191.240005</ele>
        <time>2013-04-24T18:31:17Z</time>
      </trkpt>
      <trkpt lat="43.6553" lon="1.24042">
        <ele>191.977493</ele>
        <time>2013-04-24T18:31:28Z</time>
      </trkpt>
      <trkpt lat="43.65518" lon="1.24055">
        <ele>192</ele>
        <time>2013-04-24T18:31:35Z</time>
      </trkpt>
      <trkpt lat="43.65493" lon="1.2408">
        <ele>192</ele>
        <time>2013-04-24T18:31:44Z</time>
      </trkpt>
      <trkpt lat="43.6546" lon="1.24115">
        <ele>192</ele>
        <time>2013-04-24T18:31:56Z</time>
      </trkpt>
      <trkpt lat="43.65427" lon="1.24151">
        <ele>192</ele>
        <time>2013-04-24T18:32:08Z</time>
      </trkpt>
      <trkpt lat="43.654" lon="1.24179">
        <ele>192</ele>
        <time>2013-04-24T18:32:19Z</time>
      </trkpt>
      <trkpt lat="43.65382" lon="1.24201">
        <ele>192</ele>
        <time>2013-04-24T18:32:27Z</time>
      </trkpt>
      <trkpt lat="43.6538" lon="1.24204">
        <ele>192</ele>
        <time>2013-04-24T18:32:28Z</time>
      </trkpt>
      <trkpt lat="43.65376" lon="1.24206">
        <ele>192</ele>
        <time>2013-04-24T18:32:30Z</time>
      </trkpt>
      <trkpt lat="43.65361" lon="1.24219">
        <ele>192</ele>
        <time>2013-04-24T18:32:36Z</time>
      </trkpt>
      <trkpt lat="43.65353" lon="1.24221">
        <ele>192</ele>
        <time>2013-04-24T18:32:39Z</time>
      </trkpt>
      <trkpt lat="43.65344" lon="1.24212">
        <ele>192</ele>
        <time>2013-04-24T18:32:44Z</time>
      </trkpt>
      <trkpt lat="43.65342" lon="1.24211">
        <ele>192</ele>
        <time>2013-04-24T18:32:54Z</time>
      </trkpt>
      <trkpt lat="43.65343" lon="1.24211">
        <ele>192</ele>
        <time>2013-04-24T18:33:42Z</time>
      </trkpt>
      <trkpt lat="43.65342" lon="1.24211">
        <ele>192</ele>
        <time>2013-04-24T18:34:18Z</time>
      </trkpt>
      <trkpt lat="43.65333" lon="1.24197">
        <ele>192</ele>
        <time>2013-04-24T18:34:23Z</time>
      </trkpt>
      <trkpt lat="43.65303" lon="1.24148">
        <ele>192</ele>
        <time>2013-04-24T18:34:36Z</time>
      </trkpt>
      <trkpt lat="43.65271" lon="1.2409">
        <ele>192</ele>
        <time>2013-04-24T18:34:49Z</time>
      </trkpt>
      <trkpt lat="43.65265" lon="1.24079">
        <ele>192</ele>
        <time>2013-04-24T18:34:51Z</time>
      </trkpt>
      <trkpt lat="43.65256" lon="1.24064">
        <ele>192.034912</ele>
        <time>2013-04-24T18:34:54Z</time>
      </trkpt>
      <trkpt lat="43.6524" lon="1.24033">
        <ele>192.422501</ele>
        <time>2013-04-24T18:35:00Z</time>
      </trkpt>
      <trkpt lat="43.65188" lon="1.23943">
        <ele>193</ele>
        <time>2013-04-24T18:35:17Z</time>
      </trkpt>
      <trkpt lat="43.6517" lon="1.2391">
        <ele>192.994171</ele>
        <time>2013-04-24T18:35:23Z</time>
      </trkpt>
      <trkpt lat="43.65127" lon="1.23835">
        <ele>192.959656</ele>
        <time>2013-04-24T18:35:37Z</time>
      </trkpt>
      <trkpt lat="43.65105" lon="1.23796">
        <ele>193</ele>
        <time>2013-04-24T18:35:45Z</time>
      </trkpt>
      <trkpt lat="43.65088" lon="1.23763">
        <ele>193</ele>
        <time>2013-04-24T18:35:51Z</time>
      </trkpt>
      <trkpt lat="43.6504" lon="1.23679">
        <ele>193</ele>
        <time>2013-04-24T18:36:05Z</time>
      </trkpt>
      <trkpt lat="43.65022" lon="1.23643">
        <ele>193</ele>
        <time>2013-04-24T18:36:11Z</time>
      </trkpt>
      <trkpt lat="43.64972" lon="1.23554">
        <ele>193.264999</ele>
        <time>2013-04-24T18:36:26Z</time>
      </trkpt>
      <trkpt lat="43.64948" lon="1.23509">
        <ele>193.927994</ele>
        <time>2013-04-24T18:36:34Z</time>
      </trkpt>
      <trkpt lat="43.64923" lon="1.23462">
        <ele>194</ele>
        <time>2013-04-24T18:36:42Z</time>
      </trkpt>
      <trkpt lat="43.64902" lon="1.23464">
        <ele>194</ele>
        <time>2013-04-24T18:36:48Z</time>
      </trkpt>
      <trkpt lat="43.6488" lon="1.23486">
        <ele>194</ele>
        <time>2013-04-24T18:36:57Z</time>
      </trkpt>
      <trkpt lat="43.64877" lon="1.2349">
        <ele>194</ele>
        <time>2013-04-24T18:36:58Z</time>
      </trkpt>
      <trkpt lat="43.64835" lon="1.23535">
        <ele>194</ele>
        <time>2013-04-24T18:37:12Z</time>
      </trkpt>
      <trkpt lat="43.64831" lon="1.23538">
        <ele>194</ele>
        <time>2013-04-24T18:37:13Z</time>
      </trkpt>
      <trkpt lat="43.64819" lon="1.23552">
        <ele>194</ele>
        <time>2013-04-24T18:37:17Z</time>
      </trkpt>
      <trkpt lat="43.64796" lon="1.23575">
        <ele>194</ele>
        <time>2013-04-24T18:37:24Z</time>
      </trkpt>
      <trkpt lat="43.64772" lon="1.23602">
        <ele>194</ele>
        <time>2013-04-24T18:37:34Z</time>
      </trkpt>
      <trkpt lat="43.64744" lon="1.23631">
        <ele>194</ele>
        <time>2013-04-24T18:37:44Z</time>
      </trkpt>
      <trkpt lat="43.64717" lon="1.23661">
        <ele>194</ele>
        <time>2013-04-24T18:37:55Z</time>
      </trkpt>
      <trkpt lat="43.64691" lon="1.23687">
        <ele>193.379639</ele>
        <time>2013-04-24T18:38:05Z</time>
      </trkpt>
      <trkpt lat="43.64682" lon="1.23693">
        <ele>193.188904</ele>
        <time>2013-04-24T18:38:08Z</time>
      </trkpt>
      <trkpt lat="43.64651" lon="1.23725">
        <ele>193.112091</ele>
        <time>2013-04-24T18:38:18Z</time>
      </trkpt>
      <trkpt lat="43.64645" lon="1.23731">
        <ele>193.093124</ele>
        <time>2013-04-24T18:38:20Z</time>
      </trkpt>
      <trkpt lat="43.64631" lon="1.2375">
        <ele>193</ele>
        <time>2013-04-24T18:38:26Z</time>
      </trkpt>
      <trkpt lat="43.64601" lon="1.23781">
        <ele>192.629837</ele>
        <time>2013-04-24T18:38:37Z</time>
      </trkpt>
      <trkpt lat="43.64573" lon="1.23813">
        <ele>192</ele>
        <time>2013-04-24T18:38:47Z</time>
      </trkpt>
      <trkpt lat="43.64548" lon="1.23837">
        <ele>192</ele>
        <time>2013-04-24T18:38:56Z</time>
      </trkpt>
      <trkpt lat="43.64511" lon="1.23875">
        <ele>191.863754</ele>
        <time>2013-04-24T18:39:07Z</time>
      </trkpt>
      <trkpt lat="43.64489" lon="1.23901">
        <ele>191.464996</ele>
        <time>2013-04-24T18:39:13Z</time>
      </trkpt>
      <trkpt lat="43.64473" lon="1.23918">
        <ele>191.181244</ele>
        <time>2013-04-24T18:39:18Z</time>
      </trkpt>
      <trkpt lat="43.64434" lon="1.23957">
        <ele>191</ele>
        <time>2013-04-24T18:39:30Z</time>
      </trkpt>
      <trkpt lat="43.64415" lon="1.23979">
        <ele>191</ele>
        <time>2013-04-24T18:39:36Z</time>
      </trkpt>
      <trkpt lat="43.64386" lon="1.24012">
        <ele>190.819305</ele>
        <time>2013-04-24T18:39:44Z</time>
      </trkpt>
      <trkpt lat="43.64378" lon="1.2402">
        <ele>190.823502</ele>
        <time>2013-04-24T18:39:46Z</time>
      </trkpt>
      <trkpt lat="43.64366" lon="1.24031">
        <ele>190.914413</ele>
        <time>2013-04-24T18:39:49Z</time>
      </trkpt>
      <trkpt lat="43.64358" lon="1.24037">
        <ele>191.050003</ele>
        <time>2013-04-24T18:39:51Z</time>
      </trkpt>
      <trkpt lat="43.64334" lon="1.24059">
        <ele>191.529373</ele>
        <time>2013-04-24T18:39:58Z</time>
      </trkpt>
      <trkpt lat="43.64319" lon="1.24033">
        <ele>191.902496</ele>
        <time>2013-04-24T18:40:07Z</time>
      </trkpt>
      <trkpt lat="43.64299" lon="1.2398">
        <ele>192.081589</ele>
        <time>2013-04-24T18:40:18Z</time>
      </trkpt>
      <trkpt lat="43.64284" lon="1.23951">
        <ele>192.478378</ele>
        <time>2013-04-24T18:40:24Z</time>
      </trkpt>
      <trkpt lat="43.6425" lon="1.23854">
        <ele>193.696259</ele>
        <time>2013-04-24T18:40:42Z</time>
      </trkpt>
      <trkpt lat="43.64241" lon="1.23833">
        <ele>194.245621</ele>
        <time>2013-04-24T18:40:46Z</time>
      </trkpt>
      <trkpt lat="43.64232" lon="1.23811">
        <ele>194.789993</ele>
        <time>2013-04-24T18:40:50Z</time>
      </trkpt>
      <trkpt lat="43.64203" lon="1.2372">
        <ele>198.154358</ele>
        <time>2013-04-24T18:41:06Z</time>
      </trkpt>
      <trkpt lat="43.6417" lon="1.23631">
        <ele>200.719147</ele>
        <time>2013-04-24T18:41:23Z</time>
      </trkpt>
      <trkpt lat="43.6414" lon="1.23551">
        <ele>201.383301</ele>
        <time>2013-04-24T18:41:39Z</time>
      </trkpt>
      <trkpt lat="43.64134" lon="1.23536">
        <ele>201.507996</ele>
        <time>2013-04-24T18:41:43Z</time>
      </trkpt>
      <trkpt lat="43.64126" lon="1.23524">
        <ele>201.593964</ele>
        <time>2013-04-24T18:41:48Z</time>
      </trkpt>
      <trkpt lat="43.64096" lon="1.23545">
        <ele>201.075897</ele>
        <time>2013-04-24T18:41:59Z</time>
      </trkpt>
      <trkpt lat="43.64071" lon="1.23574">
        <ele>200.277557</ele>
        <time>2013-04-24T18:42:06Z</time>
      </trkpt>
      <trkpt lat="43.6406" lon="1.23587">
        <ele>199.704514</ele>
        <time>2013-04-24T18:42:09Z</time>
      </trkpt>
      <trkpt lat="43.64031" lon="1.236">
        <ele>198.676208</ele>
        <time>2013-04-24T18:42:17Z</time>
      </trkpt>
      <trkpt lat="43.6403" lon="1.236">
        <ele>198.621323</ele>
        <time>2013-04-24T18:42:18Z</time>
      </trkpt>
      <trkpt lat="43.64024" lon="1.23588">
        <ele>198.501419</ele>
        <time>2013-04-24T18:42:24Z</time>
      </trkpt>
      <trkpt lat="43.64007" lon="1.23564">
        <ele>198.272629</ele>
        <time>2013-04-24T18:42:33Z</time>
      </trkpt>
      <trkpt lat="43.63984" lon="1.23531">
        <ele>197.662643</ele>
        <time>2013-04-24T18:42:43Z</time>
      </trkpt>
      <trkpt lat="43.63985" lon="1.235">
        <ele>197.872498</ele>
        <time>2013-04-24T18:42:49Z</time>
      </trkpt>
      <trkpt lat="43.63996" lon="1.23483">
        <ele>198.414505</ele>
        <time>2013-04-24T18:42:53Z</time>
      </trkpt>
      <trkpt lat="43.64001" lon="1.23459">
        <ele>198.929413</ele>
        <time>2013-04-24T18:42:58Z</time>
      </trkpt>
      <trkpt lat="43.64009" lon="1.23441">
        <ele>199.304993</ele>
        <time>2013-04-24T18:43:02Z</time>
      </trkpt>
      <trkpt lat="43.6401" lon="1.23431">
        <ele>199.285553</ele>
        <time>2013-04-24T18:43:04Z</time>
      </trkpt>
      <trkpt lat="43.64014" lon="1.23419">
        <ele>199.264282</ele>
        <time>2013-04-24T18:43:06Z</time>
      </trkpt>
      <trkpt lat="43.64021" lon="1.23373">
        <ele>199.080826</ele>
        <time>2013-04-24T18:43:13Z</time>
      </trkpt>
      <trkpt lat="43.64023" lon="1.23358">
        <ele>199.24585</ele>
        <time>2013-04-24T18:43:16Z</time>
      </trkpt>
      <trkpt lat="43.64023" lon="1.2334">
        <ele>199.439209</ele>
        <time>2013-04-24T18:43:19Z</time>
      </trkpt>
      <trkpt lat="43.64022" lon="1.23292">
        <ele>199.654999</ele>
        <time>2013-04-24T18:43:27Z</time>
      </trkpt>
      <trkpt lat="43.64028" lon="1.23242">
        <ele>199.852173</ele>
        <time>2013-04-24T18:43:35Z</time>
      </trkpt>
      <trkpt lat="43.64032" lon="1.23226">
        <ele>199.946915</ele>
        <time>2013-04-24T18:43:38Z</time>
      </trkpt>
      <trkpt lat="43.64035" lon="1.2321">
        <ele>199.988022</ele>
        <time>2013-04-24T18:43:41Z</time>
      </trkpt>
      <trkpt lat="43.64026" lon="1.23179">
        <ele>200.209473</ele>
        <time>2013-04-24T18:43:46Z</time>
      </trkpt>
      <trkpt lat="43.64023" lon="1.23144">
        <ele>200.580673</ele>
        <time>2013-04-24T18:43:53Z</time>
      </trkpt>
      <trkpt lat="43.64041" lon="1.23109">
        <ele>202.007492</ele>
        <time>2013-04-24T18:44:03Z</time>
      </trkpt>
      <trkpt lat="43.64057" lon="1.23083">
        <ele>203.59375</ele>
        <time>2013-04-24T18:44:12Z</time>
      </trkpt>
      <trkpt lat="43.64064" lon="1.23071">
        <ele>204.264999</ele>
        <time>2013-04-24T18:44:17Z</time>
      </trkpt>
      <trkpt lat="43.64071" lon="1.23051">
        <ele>204.600006</ele>
        <time>2013-04-24T18:44:28Z</time>
      </trkpt>
      <trkpt lat="43.64065" lon="1.23047">
        <ele>204.330002</ele>
        <time>2013-04-24T18:44:41Z</time>
      </trkpt>
      <trkpt lat="43.64033" lon="1.23038">
        <ele>202.974625</ele>
        <time>2013-04-24T18:44:52Z</time>
      </trkpt>
      <trkpt lat="43.64013" lon="1.23034">
        <ele>202.8116</ele>
        <time>2013-04-24T18:44:57Z</time>
      </trkpt>
      <trkpt lat="43.63991" lon="1.23071">
        <ele>202.034103</ele>
        <time>2013-04-24T18:45:04Z</time>
      </trkpt>
      <trkpt lat="43.63983" lon="1.23081">
        <ele>202.070007</ele>
        <time>2013-04-24T18:45:06Z</time>
      </trkpt>
      <trkpt lat="43.63976" lon="1.23089">
        <ele>202.117493</ele>
        <time>2013-04-24T18:45:08Z</time>
      </trkpt>
      <trkpt lat="43.63962" lon="1.23104">
        <ele>202.275009</ele>
        <time>2013-04-24T18:45:12Z</time>
      </trkpt>
      <trkpt lat="43.63954" lon="1.23112">
        <ele>202.395004</ele>
        <time>2013-04-24T18:45:14Z</time>
      </trkpt>
      <trkpt lat="43.63927" lon="1.23144">
        <ele>202.298752</ele>
        <time>2013-04-24T18:45:22Z</time>
      </trkpt>
      <trkpt lat="43.63907" lon="1.23167">
        <ele>202.374374</ele>
        <time>2013-04-24T18:45:28Z</time>
      </trkpt>
      <trkpt lat="43.6387" lon="1.23213">
        <ele>201.768127</ele>
        <time>2013-04-24T18:45:41Z</time>
      </trkpt>
      <trkpt lat="43.63845" lon="1.23241">
        <ele>201.587494</ele>
        <time>2013-04-24T18:45:49Z</time>
      </trkpt>
      <trkpt lat="43.63816" lon="1.23276">
        <ele>201.680618</ele>
        <time>2013-04-24T18:45:57Z</time>
      </trkpt>
      <trkpt lat="43.63808" lon="1.23284">
        <ele>201.637497</ele>
        <time>2013-04-24T18:45:59Z</time>
      </trkpt>
      <trkpt lat="43.63779" lon="1.2328">
        <ele>201.710632</ele>
        <time>2013-04-24T18:46:05Z</time>
      </trkpt>
      <trkpt lat="43.63759" lon="1.23264">
        <ele>201.773132</ele>
        <time>2013-04-24T18:46:10Z</time>
      </trkpt>
      <trkpt lat="43.63742" lon="1.23225">
        <ele>201.787018</ele>
        <time>2013-04-24T18:46:18Z</time>
      </trkpt>
      <trkpt lat="43.63719" lon="1.23183">
        <ele>202.246872</ele>
        <time>2013-04-24T18:46:27Z</time>
      </trkpt>
      <trkpt lat="43.63697" lon="1.23169">
        <ele>201.973129</ele>
        <time>2013-04-24T18:46:32Z</time>
      </trkpt>
      <trkpt lat="43.63687" lon="1.23166">
        <ele>201.801254</ele>
        <time>2013-04-24T18:46:34Z</time>
      </trkpt>
      <trkpt lat="43.63665" lon="1.23158">
        <ele>201.471878</ele>
        <time>2013-04-24T18:46:39Z</time>
      </trkpt>
      <trkpt lat="43.63651" lon="1.23149">
        <ele>201.299377</ele>
        <time>2013-04-24T18:46:44Z</time>
      </trkpt>
      <trkpt lat="43.63638" lon="1.23144">
        <ele>201.107498</ele>
        <time>2013-04-24T18:46:50Z</time>
      </trkpt>
      <trkpt lat="43.63617" lon="1.23132">
        <ele>201.267746</ele>
        <time>2013-04-24T18:47:00Z</time>
      </trkpt>
      <trkpt lat="43.63608" lon="1.23125">
        <ele>201.392593</ele>
        <time>2013-04-24T18:47:04Z</time>
      </trkpt>
      <trkpt lat="43.63579" lon="1.23113">
        <ele>201.46875</ele>
        <time>2013-04-24T18:47:14Z</time>
      </trkpt>
      <trkpt lat="43.6355" lon="1.23115">
        <ele>201.452499</ele>
        <time>2013-04-24T18:47:21Z</time>
      </trkpt>
      <trkpt lat="43.63548" lon="1.23115">
        <ele>201.457504</ele>
        <time>2013-04-24T18:47:25Z</time>
      </trkpt>
      <trkpt lat="43.63541" lon="1.23107">
        <ele>201.591248</ele>
        <time>2013-04-24T18:47:32Z</time>
      </trkpt>
      <trkpt lat="43.63541" lon="1.23097">
        <ele>201.759369</ele>
        <time>2013-04-24T18:47:36Z</time>
      </trkpt>
      <trkpt lat="43.63534" lon="1.23086">
        <ele>202.074997</ele>
        <time>2013-04-24T18:47:38Z</time>
      </trkpt>
      <trkpt lat="43.63525" lon="1.23077">
        <ele>202.488922</ele>
        <time>2013-04-24T18:47:40Z</time>
      </trkpt>
      <trkpt lat="43.63509" lon="1.23052">
        <ele>203.33226</ele>
        <time>2013-04-24T18:47:45Z</time>
      </trkpt>
      <trkpt lat="43.6352" lon="1.2302">
        <ele>203.997116</ele>
        <time>2013-04-24T18:47:54Z</time>
      </trkpt>
      <trkpt lat="43.63533" lon="1.22993">
        <ele>204.795929</ele>
        <time>2013-04-24T18:48:02Z</time>
      </trkpt>
      <trkpt lat="43.63539" lon="1.22985">
        <ele>205.105667</ele>
        <time>2013-04-24T18:48:04Z</time>
      </trkpt>
      <trkpt lat="43.63569" lon="1.22972">
        <ele>205.498749</ele>
        <time>2013-04-24T18:48:11Z</time>
      </trkpt>
      <trkpt lat="43.63595" lon="1.22942">
        <ele>206.455002</ele>
        <time>2013-04-24T18:48:18Z</time>
      </trkpt>
      <trkpt lat="43.63625" lon="1.22918">
        <ele>207.227493</ele>
        <time>2013-04-24T18:48:25Z</time>
      </trkpt>
      <trkpt lat="43.6363" lon="1.22916">
        <ele>207.296249</ele>
        <time>2013-04-24T18:48:26Z</time>
      </trkpt>
      <trkpt lat="43.6364" lon="1.22911">
        <ele>207.669998</ele>
        <time>2013-04-24T18:48:28Z</time>
      </trkpt>
      <trkpt lat="43.63659" lon="1.22885">
        <ele>208.801254</ele>
        <time>2013-04-24T18:48:33Z</time>
      </trkpt>
      <trkpt lat="43.63679" lon="1.22859">
        <ele>209.553131</ele>
        <time>2013-04-24T18:48:38Z</time>
      </trkpt>
      <trkpt lat="43.63714" lon="1.22827">
        <ele>210.049637</ele>
        <time>2013-04-24T18:48:46Z</time>
      </trkpt>
      <trkpt lat="43.63723" lon="1.22806">
        <ele>210.396255</ele>
        <time>2013-04-24T18:48:49Z</time>
      </trkpt>
      <trkpt lat="43.63741" lon="1.22766">
        <ele>210.981094</ele>
        <time>2013-04-24T18:48:55Z</time>
      </trkpt>
      <trkpt lat="43.63746" lon="1.22753">
        <ele>210.843201</ele>
        <time>2013-04-24T18:48:57Z</time>
      </trkpt>
      <trkpt lat="43.63776" lon="1.22693">
        <ele>209.695007</ele>
        <time>2013-04-24T18:49:07Z</time>
      </trkpt>
      <trkpt lat="43.63789" lon="1.2266">
        <ele>209.384995</ele>
        <time>2013-04-24T18:49:14Z</time>
      </trkpt>
      <trkpt lat="43.63811" lon="1.22607">
        <ele>208.759995</ele>
        <time>2013-04-24T18:49:22Z</time>
      </trkpt>
      <trkpt lat="43.63831" lon="1.22563">
        <ele>207.865005</ele>
        <time>2013-04-24T18:49:28Z</time>
      </trkpt>
      <trkpt lat="43.6386" lon="1.22501">
        <ele>206.828888</ele>
        <time>2013-04-24T18:49:36Z</time>
      </trkpt>
      <trkpt lat="43.63869" lon="1.22482">
        <ele>206.824646</ele>
        <time>2013-04-24T18:49:43Z</time>
      </trkpt>
      <trkpt lat="43.63871" lon="1.22477">
        <ele>206.837311</ele>
        <time>2013-04-24T18:49:48Z</time>
      </trkpt>
      <trkpt lat="43.63882" lon="1.2245">
        <ele>207.095627</ele>
        <time>2013-04-24T18:49:57Z</time>
      </trkpt>
      <trkpt lat="43.63896" lon="1.22421">
        <ele>207.564377</ele>
        <time>2013-04-24T18:50:04Z</time>
      </trkpt>
      <trkpt lat="43.63908" lon="1.22396">
        <ele>207.951874</ele>
        <time>2013-04-24T18:50:09Z</time>
      </trkpt>
      <trkpt lat="43.63919" lon="1.22358">
        <ele>208.560623</ele>
        <time>2013-04-24T18:50:17Z</time>
      </trkpt>
      <trkpt lat="43.63905" lon="1.22342">
        <ele>208.835007</ele>
        <time>2013-04-24T18:50:25Z</time>
      </trkpt>
      <trkpt lat="43.63902" lon="1.22338">
        <ele>208.890625</ele>
        <time>2013-04-24T18:50:26Z</time>
      </trkpt>
      <trkpt lat="43.63871" lon="1.22304">
        <ele>209.905411</ele>
        <time>2013-04-24T18:50:38Z</time>
      </trkpt>
      <trkpt lat="43.63861" lon="1.2229">
        <ele>210.646118</ele>
        <time>2013-04-24T18:50:44Z</time>
      </trkpt>
      <trkpt lat="43.63853" lon="1.22285">
        <ele>211.127319</ele>
        <time>2013-04-24T18:50:53Z</time>
      </trkpt>
      <trkpt lat="43.63846" lon="1.22279">
        <ele>211.660004</ele>
        <time>2013-04-24T18:50:57Z</time>
      </trkpt>
      <trkpt lat="43.63811" lon="1.2225">
        <ele>214.555496</ele>
        <time>2013-04-24T18:51:11Z</time>
      </trkpt>
      <trkpt lat="43.63807" lon="1.22245">
        <ele>215.026428</ele>
        <time>2013-04-24T18:51:14Z</time>
      </trkpt>
      <trkpt lat="43.63788" lon="1.22227">
        <ele>216.805618</ele>
        <time>2013-04-24T18:51:25Z</time>
      </trkpt>
      <trkpt lat="43.63784" lon="1.2222">
        <ele>217.343124</ele>
        <time>2013-04-24T18:51:28Z</time>
      </trkpt>
      <trkpt lat="43.63772" lon="1.22215">
        <ele>218.082504</ele>
        <time>2013-04-24T18:51:33Z</time>
      </trkpt>
      <trkpt lat="43.6374" lon="1.22189">
        <ele>221.184998</ele>
        <time>2013-04-24T18:51:46Z</time>
      </trkpt>
      <trkpt lat="43.6371" lon="1.22164">
        <ele>224.128494</ele>
        <time>2013-04-24T18:51:58Z</time>
      </trkpt>
      <trkpt lat="43.63676" lon="1.22136">
        <ele>225.640533</ele>
        <time>2013-04-24T18:52:11Z</time>
      </trkpt>
      <trkpt lat="43.63631" lon="1.22098">
        <ele>227.132233</ele>
        <time>2013-04-24T18:52:27Z</time>
      </trkpt>
      <trkpt lat="43.63618" lon="1.22089">
        <ele>227.013748</ele>
        <time>2013-04-24T18:52:31Z</time>
      </trkpt>
      <trkpt lat="43.63608" lon="1.22068">
        <ele>227.359375</ele>
        <time>2013-04-24T18:52:40Z</time>
      </trkpt>
      <trkpt lat="43.63602" lon="1.22085">
        <ele>227.081879</ele>
        <time>2013-04-24T18:52:48Z</time>
      </trkpt>
      <trkpt lat="43.63586" lon="1.22133">
        <ele>227</ele>
        <time>2013-04-24T18:53:00Z</time>
      </trkpt>
      <trkpt lat="43.63566" lon="1.22181">
        <ele>226.886612</ele>
        <time>2013-04-24T18:53:10Z</time>
      </trkpt>
      <trkpt lat="43.63561" lon="1.2219">
        <ele>226.784561</ele>
        <time>2013-04-24T18:53:12Z</time>
      </trkpt>
      <trkpt lat="43.63556" lon="1.222">
        <ele>226.641083</ele>
        <time>2013-04-24T18:53:14Z</time>
      </trkpt>
      <trkpt lat="43.63524" lon="1.22272">
        <ele>225.076874</ele>
        <time>2013-04-24T18:53:27Z</time>
      </trkpt>
      <trkpt lat="43.63509" lon="1.22307">
        <ele>224.271912</ele>
        <time>2013-04-24T18:53:33Z</time>
      </trkpt>
      <trkpt lat="43.63482" lon="1.22319">
        <ele>223.728561</ele>
        <time>2013-04-24T18:53:45Z</time>
      </trkpt>
      <trkpt lat="43.63478" lon="1.22316">
        <ele>223.867462</ele>
        <time>2013-04-24T18:53:47Z</time>
      </trkpt>
      <trkpt lat="43.63448" lon="1.22295">
        <ele>225.138687</ele>
        <time>2013-04-24T18:53:59Z</time>
      </trkpt>
      <trkpt lat="43.63418" lon="1.2227">
        <ele>226.142502</ele>
        <time>2013-04-24T18:54:10Z</time>
      </trkpt>
      <trkpt lat="43.63404" lon="1.22259">
        <ele>226.324371</ele>
        <time>2013-04-24T18:54:16Z</time>
      </trkpt>
      <trkpt lat="43.6339" lon="1.22249">
        <ele>226.503128</ele>
        <time>2013-04-24T18:54:23Z</time>
      </trkpt>
      <trkpt lat="43.63383" lon="1.22241">
        <ele>226.621872</ele>
        <time>2013-04-24T18:54:28Z</time>
      </trkpt>
      <trkpt lat="43.63378" lon="1.22236">
        <ele>226.705627</ele>
        <time>2013-04-24T18:54:36Z</time>
      </trkpt>
      <trkpt lat="43.63361" lon="1.22217">
        <ele>227.024994</ele>
        <time>2013-04-24T18:54:45Z</time>
      </trkpt>
      <trkpt lat="43.63334" lon="1.222">
        <ele>226.888748</ele>
        <time>2013-04-24T18:54:53Z</time>
      </trkpt>
      <trkpt lat="43.63331" lon="1.22197">
        <ele>226.884995</ele>
        <time>2013-04-24T18:54:54Z</time>
      </trkpt>
      <trkpt lat="43.63312" lon="1.22179">
        <ele>226.759384</ele>
        <time>2013-04-24T18:54:59Z</time>
      </trkpt>
      <trkpt lat="43.63296" lon="1.22168">
        <ele>226.555817</ele>
        <time>2013-04-24T18:55:03Z</time>
      </trkpt>
      <trkpt lat="43.63276" lon="1.22151">
        <ele>226.501297</ele>
        <time>2013-04-24T18:55:08Z</time>
      </trkpt>
      <trkpt lat="43.63238" lon="1.22121">
        <ele>226.686249</ele>
        <time>2013-04-24T18:55:17Z</time>
      </trkpt>
      <trkpt lat="43.63216" lon="1.22104">
        <ele>226.783493</ele>
        <time>2013-04-24T18:55:22Z</time>
      </trkpt>
      <trkpt lat="43.63187" lon="1.22081">
        <ele>226.809433</ele>
        <time>2013-04-24T18:55:29Z</time>
      </trkpt>
      <trkpt lat="43.63174" lon="1.22088">
        <ele>226.387222</ele>
        <time>2013-04-24T18:55:33Z</time>
      </trkpt>
      <trkpt lat="43.63157" lon="1.22103">
        <ele>225.117233</ele>
        <time>2013-04-24T18:55:38Z</time>
      </trkpt>
      <trkpt lat="43.63133" lon="1.22115">
        <ele>223.286041</ele>
        <time>2013-04-24T18:55:43Z</time>
      </trkpt>
      <trkpt lat="43.63106" lon="1.2215">
        <ele>220.270004</ele>
        <time>2013-04-24T18:55:48Z</time>
      </trkpt>
      <trkpt lat="43.63093" lon="1.2216">
        <ele>219.352493</ele>
        <time>2013-04-24T18:55:50Z</time>
      </trkpt>
      <trkpt lat="43.63084" lon="1.22185">
        <ele>217.933701</ele>
        <time>2013-04-24T18:55:54Z</time>
      </trkpt>
      <trkpt lat="43.63079" lon="1.22198">
        <ele>217.133514</ele>
        <time>2013-04-24T18:55:56Z</time>
      </trkpt>
      <trkpt lat="43.63046" lon="1.22235">
        <ele>214.830002</ele>
        <time>2013-04-24T18:56:02Z</time>
      </trkpt>
      <trkpt lat="43.63025" lon="1.22266">
        <ele>213.358749</ele>
        <time>2013-04-24T18:56:07Z</time>
      </trkpt>
      <trkpt lat="43.6302" lon="1.2227">
        <ele>213.123749</ele>
        <time>2013-04-24T18:56:08Z</time>
      </trkpt>
      <trkpt lat="43.63011" lon="1.22277">
        <ele>212.703751</ele>
        <time>2013-04-24T18:56:10Z</time>
      </trkpt>
      <trkpt lat="43.62993" lon="1.22289">
        <ele>211.961243</ele>
        <time>2013-04-24T18:56:14Z</time>
      </trkpt>
      <trkpt lat="43.62965" lon="1.22324">
        <ele>210.822495</ele>
        <time>2013-04-24T18:56:24Z</time>
      </trkpt>
      <trkpt lat="43.62947" lon="1.22356">
        <ele>209.762131</ele>
        <time>2013-04-24T18:56:33Z</time>
      </trkpt>
      <trkpt lat="43.62936" lon="1.2235">
        <ele>209.711258</ele>
        <time>2013-04-24T18:56:38Z</time>
      </trkpt>
      <trkpt lat="43.62922" lon="1.22347">
        <ele>209.497498</ele>
        <time>2013-04-24T18:56:43Z</time>
      </trkpt>
      <trkpt lat="43.62905" lon="1.22335">
        <ele>209.557495</ele>
        <time>2013-04-24T18:56:49Z</time>
      </trkpt>
      <trkpt lat="43.62893" lon="1.22324">
        <ele>209.889999</ele>
        <time>2013-04-24T18:56:54Z</time>
      </trkpt>
      <trkpt lat="43.6288" lon="1.22316">
        <ele>210.137497</ele>
        <time>2013-04-24T18:57:00Z</time>
      </trkpt>
      <trkpt lat="43.62873" lon="1.22311">
        <ele>210.300003</ele>
        <time>2013-04-24T18:57:02Z</time>
      </trkpt>
      <trkpt lat="43.62854" lon="1.22294">
        <ele>210.771881</ele>
        <time>2013-04-24T18:57:09Z</time>
      </trkpt>
      <trkpt lat="43.62809" lon="1.22265">
        <ele>210.301254</ele>
        <time>2013-04-24T18:57:23Z</time>
      </trkpt>
      <trkpt lat="43.62764" lon="1.22224">
        <ele>210.004379</ele>
        <time>2013-04-24T18:57:36Z</time>
      </trkpt>
      <trkpt lat="43.6276" lon="1.22216">
        <ele>210.028748</ele>
        <time>2013-04-24T18:57:38Z</time>
      </trkpt>
      <trkpt lat="43.62755" lon="1.22216">
        <ele>209.934998</ele>
        <time>2013-04-24T18:57:44Z</time>
      </trkpt>
      <trkpt lat="43.62767" lon="1.22237">
        <ele>209.862259</ele>
        <time>2013-04-24T18:57:54Z</time>
      </trkpt>
      <trkpt lat="43.6277" lon="1.22233">
        <ele>209.986877</ele>
        <time>2013-04-24T18:57:58Z</time>
      </trkpt>
      <trkpt lat="43.62771" lon="1.22226">
        <ele>210.107498</ele>
        <time>2013-04-24T18:58:00Z</time>
      </trkpt>
      <trkpt lat="43.62774" lon="1.22186">
        <ele>210.830627</ele>
        <time>2013-04-24T18:58:08Z</time>
      </trkpt>
      <trkpt lat="43.62799" lon="1.22152">
        <ele>211.953751</ele>
        <time>2013-04-24T18:58:16Z</time>
      </trkpt>
      <trkpt lat="43.62818" lon="1.22137">
        <ele>212.541611</ele>
        <time>2013-04-24T18:58:21Z</time>
      </trkpt>
      <trkpt lat="43.62825" lon="1.22134">
        <ele>212.677612</ele>
        <time>2013-04-24T18:58:23Z</time>
      </trkpt>
      <trkpt lat="43.62838" lon="1.22107">
        <ele>213.523712</ele>
        <time>2013-04-24T18:58:31Z</time>
      </trkpt>
      <trkpt lat="43.62838" lon="1.22088">
        <ele>213.853119</ele>
        <time>2013-04-24T18:58:35Z</time>
      </trkpt>
      <trkpt lat="43.62862" lon="1.22092">
        <ele>214.345886</ele>
        <time>2013-04-24T18:58:44Z</time>
      </trkpt>
      <trkpt lat="43.62877" lon="1.22102">
        <ele>214.492081</ele>
        <time>2013-04-24T18:58:50Z</time>
      </trkpt>
      <trkpt lat="43.62895" lon="1.22112">
        <ele>214.586258</ele>
        <time>2013-04-24T18:58:56Z</time>
      </trkpt>
      <trkpt lat="43.62913" lon="1.22112">
        <ele>214.991196</ele>
        <time>2013-04-24T18:59:00Z</time>
      </trkpt>
      <trkpt lat="43.62926" lon="1.22112">
        <ele>215.329086</ele>
        <time>2013-04-24T18:59:03Z</time>
      </trkpt>
      <trkpt lat="43.6294" lon="1.22109">
        <ele>215.722549</ele>
        <time>2013-04-24T18:59:06Z</time>
      </trkpt>
      <trkpt lat="43.6295" lon="1.22104">
        <ele>216.091507</ele>
        <time>2013-04-24T18:59:08Z</time>
      </trkpt>
      <trkpt lat="43.62985" lon="1.22084">
        <ele>218.316254</ele>
        <time>2013-04-24T18:59:16Z</time>
      </trkpt>
      <trkpt lat="43.63022" lon="1.22084">
        <ele>220.116409</ele>
        <time>2013-04-24T18:59:25Z</time>
      </trkpt>
      <trkpt lat="43.63039" lon="1.22079">
        <ele>221.254379</ele>
        <time>2013-04-24T18:59:31Z</time>
      </trkpt>
      <trkpt lat="43.63054" lon="1.22068">
        <ele>222.744995</ele>
        <time>2013-04-24T18:59:39Z</time>
      </trkpt>
      <trkpt lat="43.6309" lon="1.22042">
        <ele>226.013123</ele>
        <time>2013-04-24T18:59:55Z</time>
      </trkpt>
      <trkpt lat="43.63129" lon="1.22018">
        <ele>227.393753</ele>
        <time>2013-04-24T19:00:09Z</time>
      </trkpt>
      <trkpt lat="43.63177" lon="1.21981">
        <ele>228.888748</ele>
        <time>2013-04-24T19:00:22Z</time>
      </trkpt>
      <trkpt lat="43.63205" lon="1.21955">
        <ele>229</ele>
        <time>2013-04-24T19:00:29Z</time>
      </trkpt>
      <trkpt lat="43.63235" lon="1.21935">
        <ele>229</ele>
        <time>2013-04-24T19:00:36Z</time>
      </trkpt>
      <trkpt lat="43.63252" lon="1.21924">
        <ele>229</ele>
        <time>2013-04-24T19:00:41Z</time>
      </trkpt>
      <trkpt lat="43.63265" lon="1.21924">
        <ele>229</ele>
        <time>2013-04-24T19:00:45Z</time>
      </trkpt>
      <trkpt lat="43.63287" lon="1.21923">
        <ele>229</ele>
        <time>2013-04-24T19:00:52Z</time>
      </trkpt>
      <trkpt lat="43.63297" lon="1.21915">
        <ele>229</ele>
        <time>2013-04-24T19:00:55Z</time>
      </trkpt>
      <trkpt lat="43.63311" lon="1.21906">
        <ele>228.789764</ele>
        <time>2013-04-24T19:00:59Z</time>
      </trkpt>
      <trkpt lat="43.63325" lon="1.21892">
        <ele>228.383301</ele>
        <time>2013-04-24T19:01:03Z</time>
      </trkpt>
      <trkpt lat="43.63349" lon="1.21873">
        <ele>228</ele>
        <time>2013-04-24T19:01:10Z</time>
      </trkpt>
      <trkpt lat="43.6336" lon="1.21832">
        <ele>228</ele>
        <time>2013-04-24T19:01:19Z</time>
      </trkpt>
      <trkpt lat="43.63359" lon="1.21827">
        <ele>228</ele>
        <time>2013-04-24T19:01:29Z</time>
      </trkpt>
      <trkpt lat="43.63359" lon="1.21826">
        <ele>228</ele>
        <time>2013-04-24T19:01:51Z</time>
      </trkpt>
      <trkpt lat="43.6336" lon="1.21783">
        <ele>228</ele>
        <time>2013-04-24T19:02:01Z</time>
      </trkpt>
      <trkpt lat="43.63364" lon="1.21764">
        <ele>228</ele>
        <time>2013-04-24T19:02:04Z</time>
      </trkpt>
      <trkpt lat="43.63366" lon="1.21745">
        <ele>228</ele>
        <time>2013-04-24T19:02:07Z</time>
      </trkpt>
      <trkpt lat="43.6337" lon="1.21716">
        <ele>228</ele>
        <time>2013-04-24T19:02:12Z</time>
      </trkpt>
      <trkpt lat="43.63378" lon="1.21669">
        <ele>228</ele>
        <time>2013-04-24T19:02:20Z</time>
      </trkpt>
      <trkpt lat="43.63389" lon="1.21612">
        <ele>228</ele>
        <time>2013-04-24T19:02:28Z</time>
      </trkpt>
      <trkpt lat="43.63397" lon="1.21575">
        <ele>228</ele>
        <time>2013-04-24T19:02:33Z</time>
      </trkpt>
      <trkpt lat="43.63392" lon="1.21552">
        <ele>228</ele>
        <time>2013-04-24T19:02:37Z</time>
      </trkpt>
      <trkpt lat="43.63385" lon="1.21544">
        <ele>228</ele>
        <time>2013-04-24T19:02:39Z</time>
      </trkpt>
      <trkpt lat="43.63364" lon="1.21521">
        <ele>227.890015</ele>
        <time>2013-04-24T19:02:44Z</time>
      </trkpt>
      <trkpt lat="43.6335" lon="1.21509">
        <ele>227.951172</ele>
        <time>2013-04-24T19:02:47Z</time>
      </trkpt>
      <trkpt lat="43.63341" lon="1.21501">
        <ele>228</ele>
        <time>2013-04-24T19:02:49Z</time>
      </trkpt>
      <trkpt lat="43.63324" lon="1.21486">
        <ele>228</ele>
        <time>2013-04-24T19:02:53Z</time>
      </trkpt>
      <trkpt lat="43.63292" lon="1.2146">
        <ele>228.169998</ele>
        <time>2013-04-24T19:03:00Z</time>
      </trkpt>
      <trkpt lat="43.63274" lon="1.21445">
        <ele>228.565002</ele>
        <time>2013-04-24T19:03:04Z</time>
      </trkpt>
      <trkpt lat="43.6326" lon="1.21435">
        <ele>228.872498</ele>
        <time>2013-04-24T19:03:07Z</time>
      </trkpt>
      <trkpt lat="43.63229" lon="1.21409">
        <ele>229</ele>
        <time>2013-04-24T19:03:14Z</time>
      </trkpt>
      <trkpt lat="43.63202" lon="1.21384">
        <ele>229.167496</ele>
        <time>2013-04-24T19:03:21Z</time>
      </trkpt>
      <trkpt lat="43.63182" lon="1.21368">
        <ele>229.602493</ele>
        <time>2013-04-24T19:03:26Z</time>
      </trkpt>
      <trkpt lat="43.63141" lon="1.21339">
        <ele>230</ele>
        <time>2013-04-24T19:03:36Z</time>
      </trkpt>
      <trkpt lat="43.63092" lon="1.21295">
        <ele>230.572495</ele>
        <time>2013-04-24T19:03:49Z</time>
      </trkpt>
      <trkpt lat="43.63049" lon="1.21256">
        <ele>231.189255</ele>
        <time>2013-04-24T19:04:01Z</time>
      </trkpt>
      <trkpt lat="43.6304" lon="1.21253">
        <ele>231.210419</ele>
        <time>2013-04-24T19:04:04Z</time>
      </trkpt>
      <trkpt lat="43.6302" lon="1.21292">
        <ele>231.939713</ele>
        <time>2013-04-24T19:04:15Z</time>
      </trkpt>
      <trkpt lat="43.62994" lon="1.21351">
        <ele>232.673523</ele>
        <time>2013-04-24T19:04:27Z</time>
      </trkpt>
      <trkpt lat="43.6299" lon="1.21362">
        <ele>232.831177</ele>
        <time>2013-04-24T19:04:29Z</time>
      </trkpt>
      <trkpt lat="43.62964" lon="1.21421">
        <ele>232.472656</ele>
        <time>2013-04-24T19:04:42Z</time>
      </trkpt>
      <trkpt lat="43.62957" lon="1.21437">
        <ele>232.462448</ele>
        <time>2013-04-24T19:04:45Z</time>
      </trkpt>
      <trkpt lat="43.6295" lon="1.21457">
        <ele>232.348099</ele>
        <time>2013-04-24T19:04:49Z</time>
      </trkpt>
      <trkpt lat="43.62931" lon="1.21468">
        <ele>232.257507</ele>
        <time>2013-04-24T19:04:54Z</time>
      </trkpt>
      <trkpt lat="43.62859" lon="1.21422">
        <ele>233.030624</ele>
        <time>2013-04-24T19:05:06Z</time>
      </trkpt>
      <trkpt lat="43.62852" lon="1.21417">
        <ele>233.115005</ele>
        <time>2013-04-24T19:05:07Z</time>
      </trkpt>
      <trkpt lat="43.62821" lon="1.21391">
        <ele>233.835526</ele>
        <time>2013-04-24T19:05:13Z</time>
      </trkpt>
      <trkpt lat="43.62793" lon="1.21372">
        <ele>234.252502</ele>
        <time>2013-04-24T19:05:18Z</time>
      </trkpt>
      <trkpt lat="43.62761" lon="1.21344">
        <ele>234.962494</ele>
        <time>2013-04-24T19:05:28Z</time>
      </trkpt>
      <trkpt lat="43.62728" lon="1.21319">
        <ele>235</ele>
        <time>2013-04-24T19:05:39Z</time>
      </trkpt>
      <trkpt lat="43.62714" lon="1.21306">
        <ele>235</ele>
        <time>2013-04-24T19:05:43Z</time>
      </trkpt>
      <trkpt lat="43.62699" lon="1.21295">
        <ele>235</ele>
        <time>2013-04-24T19:05:47Z</time>
      </trkpt>
      <trkpt lat="43.62682" lon="1.21284">
        <ele>235</ele>
        <time>2013-04-24T19:05:51Z</time>
      </trkpt>
      <trkpt lat="43.62671" lon="1.21273">
        <ele>235</ele>
        <time>2013-04-24T19:05:54Z</time>
      </trkpt>
      <trkpt lat="43.62663" lon="1.21267">
        <ele>234.928986</ele>
        <time>2013-04-24T19:05:56Z</time>
      </trkpt>
      <trkpt lat="43.62646" lon="1.21253">
        <ele>234.596588</ele>
        <time>2013-04-24T19:06:00Z</time>
      </trkpt>
      <trkpt lat="43.62633" lon="1.21244">
        <ele>234.22438</ele>
        <time>2013-04-24T19:06:03Z</time>
      </trkpt>
      <trkpt lat="43.62613" lon="1.21227">
        <ele>234.14534</ele>
        <time>2013-04-24T19:06:08Z</time>
      </trkpt>
      <trkpt lat="43.62579" lon="1.21199">
        <ele>233.302856</ele>
        <time>2013-04-24T19:06:18Z</time>
      </trkpt>
      <trkpt lat="43.62572" lon="1.21192">
        <ele>232.872177</ele>
        <time>2013-04-24T19:06:20Z</time>
      </trkpt>
      <trkpt lat="43.62532" lon="1.21157">
        <ele>231.418839</ele>
        <time>2013-04-24T19:06:30Z</time>
      </trkpt>
      <trkpt lat="43.62531" lon="1.21156">
        <ele>231.474014</ele>
        <time>2013-04-24T19:06:34Z</time>
      </trkpt>
      <trkpt lat="43.6253" lon="1.21153">
        <ele>231.536255</ele>
        <time>2013-04-24T19:06:36Z</time>
      </trkpt>
      <trkpt lat="43.62528" lon="1.21146">
        <ele>231.699158</ele>
        <time>2013-04-24T19:06:42Z</time>
      </trkpt>
      <trkpt lat="43.62525" lon="1.21144">
        <ele>231.82106</ele>
        <time>2013-04-24T19:06:45Z</time>
      </trkpt>
      <trkpt lat="43.62523" lon="1.21145">
        <ele>231.857498</ele>
        <time>2013-04-24T19:06:47Z</time>
      </trkpt>
      <trkpt lat="43.62516" lon="1.21144">
        <ele>232.112442</ele>
        <time>2013-04-24T19:06:56Z</time>
      </trkpt>
      <trkpt lat="43.62508" lon="1.2114">
        <ele>232.458405</ele>
        <time>2013-04-24T19:07:00Z</time>
      </trkpt>
      <trkpt lat="43.62481" lon="1.21118">
        <ele>234.392395</ele>
        <time>2013-04-24T19:07:10Z</time>
      </trkpt>
      <trkpt lat="43.62474" lon="1.21111">
        <ele>234.905701</ele>
        <time>2013-04-24T19:07:12Z</time>
      </trkpt>
      <trkpt lat="43.62459" lon="1.21098">
        <ele>235.797729</ele>
        <time>2013-04-24T19:07:16Z</time>
      </trkpt>
      <trkpt lat="43.62431" lon="1.21074">
        <ele>236.84314</ele>
        <time>2013-04-24T19:07:23Z</time>
      </trkpt>
      <trkpt lat="43.62401" lon="1.21051">
        <ele>237</ele>
        <time>2013-04-24T19:07:30Z</time>
      </trkpt>
      <trkpt lat="43.62388" lon="1.21039">
        <ele>237.070694</ele>
        <time>2013-04-24T19:07:33Z</time>
      </trkpt>
      <trkpt lat="43.62365" lon="1.21019">
        <ele>237.492172</ele>
        <time>2013-04-24T19:07:39Z</time>
      </trkpt>
      <trkpt lat="43.62345" lon="1.21002">
        <ele>237.976868</ele>
        <time>2013-04-24T19:07:44Z</time>
      </trkpt>
      <trkpt lat="43.62318" lon="1.20979">
        <ele>238.264145</ele>
        <time>2013-04-24T19:07:51Z</time>
      </trkpt>
      <trkpt lat="43.62307" lon="1.20967">
        <ele>238.542221</ele>
        <time>2013-04-24T19:07:54Z</time>
      </trkpt>
      <trkpt lat="43.62289" lon="1.20955">
        <ele>238.753128</ele>
        <time>2013-04-24T19:07:58Z</time>
      </trkpt>
      <trkpt lat="43.62276" lon="1.20946">
        <ele>238.909378</ele>
        <time>2013-04-24T19:08:01Z</time>
      </trkpt>
      <trkpt lat="43.62261" lon="1.2093">
        <ele>239.169052</ele>
        <time>2013-04-24T19:08:05Z</time>
      </trkpt>
      <trkpt lat="43.62251" lon="1.20918">
        <ele>239.498352</ele>
        <time>2013-04-24T19:08:08Z</time>
      </trkpt>
      <trkpt lat="43.62219" lon="1.20891">
        <ele>239.986359</ele>
        <time>2013-04-24T19:08:17Z</time>
      </trkpt>
      <trkpt lat="43.622" lon="1.20876">
        <ele>240</ele>
        <time>2013-04-24T19:08:21Z</time>
      </trkpt>
      <trkpt lat="43.62182" lon="1.20859">
        <ele>240</ele>
        <time>2013-04-24T19:08:25Z</time>
      </trkpt>
      <trkpt lat="43.62162" lon="1.2084">
        <ele>239.710815</ele>
        <time>2013-04-24T19:08:30Z</time>
      </trkpt>
      <trkpt lat="43.62139" lon="1.20823">
        <ele>238.690918</ele>
        <time>2013-04-24T19:08:35Z</time>
      </trkpt>
      <trkpt lat="43.62114" lon="1.20803">
        <ele>236.892044</ele>
        <time>2013-04-24T19:08:41Z</time>
      </trkpt>
      <trkpt lat="43.62078" lon="1.20773">
        <ele>232.854538</ele>
        <time>2013-04-24T19:08:50Z</time>
      </trkpt>
      <trkpt lat="43.62068" lon="1.20764">
        <ele>230.936432</ele>
        <time>2013-04-24T19:08:52Z</time>
      </trkpt>
      <trkpt lat="43.62056" lon="1.20754">
        <ele>228.479599</ele>
        <time>2013-04-24T19:08:54Z</time>
      </trkpt>
      <trkpt lat="43.61986" lon="1.20699">
        <ele>216.94632</ele>
        <time>2013-04-24T19:09:01Z</time>
      </trkpt>
      <trkpt lat="43.61945" lon="1.20665">
        <ele>215.61821</ele>
        <time>2013-04-24T19:09:06Z</time>
      </trkpt>
      <trkpt lat="43.61919" lon="1.20645">
        <ele>216.349564</ele>
        <time>2013-04-24T19:09:10Z</time>
      </trkpt>
      <trkpt lat="43.61898" lon="1.2067">
        <ele>215.978745</ele>
        <time>2013-04-24T19:09:17Z</time>
      </trkpt>
      <trkpt lat="43.61879" lon="1.20712">
        <ele>215.284348</ele>
        <time>2013-04-24T19:09:23Z</time>
      </trkpt>
      <trkpt lat="43.61868" lon="1.20734">
        <ele>214.949478</ele>
        <time>2013-04-24T19:09:27Z</time>
      </trkpt>
      <trkpt lat="43.61855" lon="1.20734">
        <ele>214.935806</ele>
        <time>2013-04-24T19:09:32Z</time>
      </trkpt>
      <trkpt lat="43.61817" lon="1.2071">
        <ele>217.350006</ele>
        <time>2013-04-24T19:09:45Z</time>
      </trkpt>
      <trkpt lat="43.61788" lon="1.20684">
        <ele>220.884338</ele>
        <time>2013-04-24T19:09:59Z</time>
      </trkpt>
      <trkpt lat="43.61777" lon="1.20674">
        <ele>222.481613</ele>
        <time>2013-04-24T19:10:05Z</time>
      </trkpt>
      <trkpt lat="43.61769" lon="1.2067">
        <ele>223.56012</ele>
        <time>2013-04-24T19:10:10Z</time>
      </trkpt>
      <trkpt lat="43.61754" lon="1.20654">
        <ele>226.139328</ele>
        <time>2013-04-24T19:10:19Z</time>
      </trkpt>
      <trkpt lat="43.61748" lon="1.20648">
        <ele>227.253845</ele>
        <time>2013-04-24T19:10:23Z</time>
      </trkpt>
      <trkpt lat="43.61734" lon="1.20636">
        <ele>229.585007</ele>
        <time>2013-04-24T19:10:33Z</time>
      </trkpt>
      <trkpt lat="43.61728" lon="1.20634">
        <ele>230.467499</ele>
        <time>2013-04-24T19:10:37Z</time>
      </trkpt>
      <trkpt lat="43.61707" lon="1.2062">
        <ele>232.808334</ele>
        <time>2013-04-24T19:10:50Z</time>
      </trkpt>
      <trkpt lat="43.61694" lon="1.2061">
        <ele>233.906281</ele>
        <time>2013-04-24T19:10:59Z</time>
      </trkpt>
      <trkpt lat="43.6167" lon="1.20586">
        <ele>235.623123</ele>
        <time>2013-04-24T19:11:11Z</time>
      </trkpt>
      <trkpt lat="43.61664" lon="1.20581">
        <ele>235.610001</ele>
        <time>2013-04-24T19:11:14Z</time>
      </trkpt>
      <trkpt lat="43.6164" lon="1.20555">
        <ele>235.318161</ele>
        <time>2013-04-24T19:11:23Z</time>
      </trkpt>
      <trkpt lat="43.61647" lon="1.20529">
        <ele>236.203033</ele>
        <time>2013-04-24T19:11:29Z</time>
      </trkpt>
      <trkpt lat="43.61667" lon="1.20477">
        <ele>236.904999</ele>
        <time>2013-04-24T19:11:42Z</time>
      </trkpt>
      <trkpt lat="43.6167" lon="1.20473">
        <ele>236.957504</ele>
        <time>2013-04-24T19:11:43Z</time>
      </trkpt>
      <trkpt lat="43.61686" lon="1.20435">
        <ele>236.434875</ele>
        <time>2013-04-24T19:11:50Z</time>
      </trkpt>
      <trkpt lat="43.61709" lon="1.20379">
        <ele>236</ele>
        <time>2013-04-24T19:12:00Z</time>
      </trkpt>
      <trkpt lat="43.61729" lon="1.20329">
        <ele>236</ele>
        <time>2013-04-24T19:12:08Z</time>
      </trkpt>
      <trkpt lat="43.61739" lon="1.20305">
        <ele>236</ele>
        <time>2013-04-24T19:12:12Z</time>
      </trkpt>
      <trkpt lat="43.61745" lon="1.20286">
        <ele>236</ele>
        <time>2013-04-24T19:12:15Z</time>
      </trkpt>
      <trkpt lat="43.61759" lon="1.20258">
        <ele>236</ele>
        <time>2013-04-24T19:12:20Z</time>
      </trkpt>
      <trkpt lat="43.61773" lon="1.20229">
        <ele>236</ele>
        <time>2013-04-24T19:12:25Z</time>
      </trkpt>
      <trkpt lat="43.6178" lon="1.20213">
        <ele>236</ele>
        <time>2013-04-24T19:12:28Z</time>
      </trkpt>
      <trkpt lat="43.6177" lon="1.2019">
        <ele>236</ele>
        <time>2013-04-24T19:12:35Z</time>
      </trkpt>
      <trkpt lat="43.6175" lon="1.20168">
        <ele>236</ele>
        <time>2013-04-24T19:12:47Z</time>
      </trkpt>
      <trkpt lat="43.61749" lon="1.20166">
        <ele>236</ele>
        <time>2013-04-24T19:12:48Z</time>
      </trkpt>
      <trkpt lat="43.61742" lon="1.20159">
        <ele>236</ele>
        <time>2013-04-24T19:12:51Z</time>
      </trkpt>
      <trkpt lat="43.6174" lon="1.20133">
        <ele>236</ele>
        <time>2013-04-24T19:12:58Z</time>
      </trkpt>
      <trkpt lat="43.61738" lon="1.2011">
        <ele>236</ele>
        <time>2013-04-24T19:13:02Z</time>
      </trkpt>
      <trkpt lat="43.61747" lon="1.20083">
        <ele>235.994965</ele>
        <time>2013-04-24T19:13:07Z</time>
      </trkpt>
      <trkpt lat="43.61783" lon="1.20005">
        <ele>236</ele>
        <time>2013-04-24T19:13:20Z</time>
      </trkpt>
      <trkpt lat="43.6179" lon="1.19986">
        <ele>236</ele>
        <time>2013-04-24T19:13:23Z</time>
      </trkpt>
      <trkpt lat="43.61803" lon="1.19959">
        <ele>236</ele>
        <time>2013-04-24T19:13:28Z</time>
      </trkpt>
      <trkpt lat="43.61815" lon="1.19928">
        <ele>236</ele>
        <time>2013-04-24T19:13:33Z</time>
      </trkpt>
      <trkpt lat="43.61822" lon="1.19911">
        <ele>236</ele>
        <time>2013-04-24T19:13:36Z</time>
      </trkpt>
      <trkpt lat="43.61839" lon="1.19872">
        <ele>236</ele>
        <time>2013-04-24T19:13:43Z</time>
      </trkpt>
      <trkpt lat="43.6185" lon="1.1985">
        <ele>236</ele>
        <time>2013-04-24T19:13:47Z</time>
      </trkpt>
      <trkpt lat="43.61858" lon="1.19829">
        <ele>236</ele>
        <time>2013-04-24T19:13:51Z</time>
      </trkpt>
      <trkpt lat="43.61872" lon="1.19801">
        <ele>236</ele>
        <time>2013-04-24T19:13:59Z</time>
      </trkpt>
      <trkpt lat="43.6188" lon="1.19775">
        <ele>236</ele>
        <time>2013-04-24T19:14:06Z</time>
      </trkpt>
      <trkpt lat="43.61899" lon="1.19732">
        <ele>236.237503</ele>
        <time>2013-04-24T19:14:16Z</time>
      </trkpt>
      <trkpt lat="43.61927" lon="1.19672">
        <ele>236.875</ele>
        <time>2013-04-24T19:14:28Z</time>
      </trkpt>
      <trkpt lat="43.61937" lon="1.1965">
        <ele>237</ele>
        <time>2013-04-24T19:14:32Z</time>
      </trkpt>
      <trkpt lat="43.61964" lon="1.19592">
        <ele>237</ele>
        <time>2013-04-24T19:14:44Z</time>
      </trkpt>
      <trkpt lat="43.61988" lon="1.19533">
        <ele>237.883453</ele>
        <time>2013-04-24T19:14:55Z</time>
      </trkpt>
      <trkpt lat="43.62013" lon="1.19479">
        <ele>238.593155</ele>
        <time>2013-04-24T19:15:06Z</time>
      </trkpt>
      <trkpt lat="43.62034" lon="1.19428">
        <ele>239</ele>
        <time>2013-04-24T19:15:17Z</time>
      </trkpt>
      <trkpt lat="43.6205" lon="1.19402">
        <ele>239</ele>
        <time>2013-04-24T19:15:23Z</time>
      </trkpt>
      <trkpt lat="43.6206" lon="1.19368">
        <ele>239.44223</ele>
        <time>2013-04-24T19:15:31Z</time>
      </trkpt>
      <trkpt lat="43.6207" lon="1.19346">
        <ele>239.838745</ele>
        <time>2013-04-24T19:15:36Z</time>
      </trkpt>
      <trkpt lat="43.62074" lon="1.19336">
        <ele>239.992493</ele>
        <time>2013-04-24T19:15:38Z</time>
      </trkpt>
      <trkpt lat="43.62099" lon="1.19287">
        <ele>240</ele>
        <time>2013-04-24T19:15:48Z</time>
      </trkpt>
      <trkpt lat="43.62107" lon="1.19269">
        <ele>240</ele>
        <time>2013-04-24T19:15:53Z</time>
      </trkpt>
      <trkpt lat="43.62123" lon="1.1923">
        <ele>240</ele>
        <time>2013-04-24T19:16:03Z</time>
      </trkpt>
      <trkpt lat="43.62138" lon="1.19188">
        <ele>240</ele>
        <time>2013-04-24T19:16:12Z</time>
      </trkpt>
      <trkpt lat="43.62149" lon="1.19164">
        <ele>240</ele>
        <time>2013-04-24T19:16:17Z</time>
      </trkpt>
      <trkpt lat="43.62173" lon="1.19108">
        <ele>240.330856</ele>
        <time>2013-04-24T19:16:28Z</time>
      </trkpt>
      <trkpt lat="43.62198" lon="1.1905">
        <ele>241.196289</ele>
        <time>2013-04-24T19:16:40Z</time>
      </trkpt>
      <trkpt lat="43.62222" lon="1.18995">
        <ele>242.268478</ele>
        <time>2013-04-24T19:16:51Z</time>
      </trkpt>
      <trkpt lat="43.62251" lon="1.18938">
        <ele>243.620621</ele>
        <time>2013-04-24T19:17:04Z</time>
      </trkpt>
      <trkpt lat="43.62265" lon="1.18929">
        <ele>244.082504</ele>
        <time>2013-04-24T19:17:08Z</time>
      </trkpt>
      <trkpt lat="43.62297" lon="1.18925">
        <ele>244.716202</ele>
        <time>2013-04-24T19:17:17Z</time>
      </trkpt>
      <trkpt lat="43.6232" lon="1.18937">
        <ele>244.656708</ele>
        <time>2013-04-24T19:17:23Z</time>
      </trkpt>
      <trkpt lat="43.62334" lon="1.18944">
        <ele>244.482498</ele>
        <time>2013-04-24T19:17:27Z</time>
      </trkpt>
      <trkpt lat="43.62379" lon="1.18953">
        <ele>244.073746</ele>
        <time>2013-04-24T19:17:36Z</time>
      </trkpt>
      <trkpt lat="43.62384" lon="1.18956">
        <ele>243.888748</ele>
        <time>2013-04-24T19:17:37Z</time>
      </trkpt>
      <trkpt lat="43.62412" lon="1.18966">
        <ele>242.895004</ele>
        <time>2013-04-24T19:17:42Z</time>
      </trkpt>
      <trkpt lat="43.62451" lon="1.18994">
        <ele>241.112503</ele>
        <time>2013-04-24T19:17:51Z</time>
      </trkpt>
      <trkpt lat="43.62453" lon="1.18997">
        <ele>240.971252</ele>
        <time>2013-04-24T19:17:52Z</time>
      </trkpt>
      <trkpt lat="43.62476" lon="1.19024">
        <ele>239.762497</ele>
        <time>2013-04-24T19:18:00Z</time>
      </trkpt>
      <trkpt lat="43.62502" lon="1.19054">
        <ele>239.184998</ele>
        <time>2013-04-24T19:18:08Z</time>
      </trkpt>
      <trkpt lat="43.62536" lon="1.19094">
        <ele>239</ele>
        <time>2013-04-24T19:18:20Z</time>
      </trkpt>
      <trkpt lat="43.62569" lon="1.19126">
        <ele>239</ele>
        <time>2013-04-24T19:18:29Z</time>
      </trkpt>
      <trkpt lat="43.62587" lon="1.19139">
        <ele>239</ele>
        <time>2013-04-24T19:18:33Z</time>
      </trkpt>
      <trkpt lat="43.6261" lon="1.19158">
        <ele>238.705627</ele>
        <time>2013-04-24T19:18:38Z</time>
      </trkpt>
      <trkpt lat="43.62628" lon="1.19174">
        <ele>238.440002</ele>
        <time>2013-04-24T19:18:42Z</time>
      </trkpt>
      <trkpt lat="43.62661" lon="1.19199">
        <ele>238.023132</ele>
        <time>2013-04-24T19:18:50Z</time>
      </trkpt>
      <trkpt lat="43.62664" lon="1.19203">
        <ele>238</ele>
        <time>2013-04-24T19:18:51Z</time>
      </trkpt>
      <trkpt lat="43.62685" lon="1.19232">
        <ele>238</ele>
        <time>2013-04-24T19:18:59Z</time>
      </trkpt>
      <trkpt lat="43.62698" lon="1.19241">
        <ele>238</ele>
        <time>2013-04-24T19:19:03Z</time>
      </trkpt>
      <trkpt lat="43.62752" lon="1.1926">
        <ele>238</ele>
        <time>2013-04-24T19:19:14Z</time>
      </trkpt>
      <trkpt lat="43.62779" lon="1.1926">
        <ele>237.997498</ele>
        <time>2013-04-24T19:19:19Z</time>
      </trkpt>
      <trkpt lat="43.62819" lon="1.1925">
        <ele>237.289825</ele>
        <time>2013-04-24T19:19:27Z</time>
      </trkpt>
      <trkpt lat="43.62829" lon="1.19247">
        <ele>237.186874</ele>
        <time>2013-04-24T19:19:29Z</time>
      </trkpt>
      <trkpt lat="43.62849" lon="1.19247">
        <ele>237.17688</ele>
        <time>2013-04-24T19:19:33Z</time>
      </trkpt>
      <trkpt lat="43.62868" lon="1.19253">
        <ele>237.08313</ele>
        <time>2013-04-24T19:19:37Z</time>
      </trkpt>
      <trkpt lat="43.62878" lon="1.19255">
        <ele>237.035675</ele>
        <time>2013-04-24T19:19:39Z</time>
      </trkpt>
      <trkpt lat="43.62895" lon="1.19261">
        <ele>237.026825</ele>
        <time>2013-04-24T19:19:43Z</time>
      </trkpt>
      <trkpt lat="43.62911" lon="1.19263">
        <ele>237.083313</ele>
        <time>2013-04-24T19:19:46Z</time>
      </trkpt>
      <trkpt lat="43.62943" lon="1.19268">
        <ele>237.190002</ele>
        <time>2013-04-24T19:19:54Z</time>
      </trkpt>
      <trkpt lat="43.62952" lon="1.19271">
        <ele>237.234375</ele>
        <time>2013-04-24T19:19:56Z</time>
      </trkpt>
      <trkpt lat="43.6297" lon="1.19275">
        <ele>237.315002</ele>
        <time>2013-04-24T19:20:00Z</time>
      </trkpt>
      <trkpt lat="43.62989" lon="1.19281">
        <ele>237.403748</ele>
        <time>2013-04-24T19:20:04Z</time>
      </trkpt>
      <trkpt lat="43.63005" lon="1.19283">
        <ele>237.455627</ele>
        <time>2013-04-24T19:20:07Z</time>
      </trkpt>
      <trkpt lat="43.63019" lon="1.19287">
        <ele>237.514999</ele>
        <time>2013-04-24T19:20:10Z</time>
      </trkpt>
      <trkpt lat="43.63062" lon="1.19307">
        <ele>237.666595</ele>
        <time>2013-04-24T19:20:21Z</time>
      </trkpt>
      <trkpt lat="43.63057" lon="1.1933">
        <ele>237.665619</ele>
        <time>2013-04-24T19:20:28Z</time>
      </trkpt>
      <trkpt lat="43.63038" lon="1.19374">
        <ele>237.386353</ele>
        <time>2013-04-24T19:20:37Z</time>
      </trkpt>
      <trkpt lat="43.63027" lon="1.19401">
        <ele>237.582504</ele>
        <time>2013-04-24T19:20:42Z</time>
      </trkpt>
      <trkpt lat="43.63004" lon="1.19471">
        <ele>238</ele>
        <time>2013-04-24T19:20:54Z</time>
      </trkpt>
      <trkpt lat="43.62985" lon="1.19583">
        <ele>237.588867</ele>
        <time>2013-04-24T19:21:09Z</time>
      </trkpt>
      <trkpt lat="43.62975" lon="1.19635">
        <ele>236.668121</ele>
        <time>2013-04-24T19:21:16Z</time>
      </trkpt>
      <trkpt lat="43.62971" lon="1.19659">
        <ele>236.388123</ele>
        <time>2013-04-24T19:21:20Z</time>
      </trkpt>
      <trkpt lat="43.62996" lon="1.19701">
        <ele>235.357498</ele>
        <time>2013-04-24T19:21:30Z</time>
      </trkpt>
      <trkpt lat="43.6302" lon="1.1971">
        <ele>234.817505</ele>
        <time>2013-04-24T19:21:35Z</time>
      </trkpt>
      <trkpt lat="43.63056" lon="1.19731">
        <ele>234.027496</ele>
        <time>2013-04-24T19:21:42Z</time>
      </trkpt>
      <trkpt lat="43.63068" lon="1.19743">
        <ele>234</ele>
        <time>2013-04-24T19:21:45Z</time>
      </trkpt>
      <trkpt lat="43.63087" lon="1.19754">
        <ele>234</ele>
        <time>2013-04-24T19:21:50Z</time>
      </trkpt>
      <trkpt lat="43.63102" lon="1.19767">
        <ele>234</ele>
        <time>2013-04-24T19:21:54Z</time>
      </trkpt>
      <trkpt lat="43.63112" lon="1.19771">
        <ele>233.859543</ele>
        <time>2013-04-24T19:21:56Z</time>
      </trkpt>
      <trkpt lat="43.63142" lon="1.19797">
        <ele>233.829498</ele>
        <time>2013-04-24T19:22:04Z</time>
      </trkpt>
      <trkpt lat="43.63153" lon="1.19817">
        <ele>233.888916</ele>
        <time>2013-04-24T19:22:08Z</time>
      </trkpt>
      <trkpt lat="43.63168" lon="1.19838">
        <ele>233.765259</ele>
        <time>2013-04-24T19:22:12Z</time>
      </trkpt>
      <trkpt lat="43.63189" lon="1.19852">
        <ele>233.725677</ele>
        <time>2013-04-24T19:22:16Z</time>
      </trkpt>
      <trkpt lat="43.63226" lon="1.19846">
        <ele>233.615631</ele>
        <time>2013-04-24T19:22:22Z</time>
      </trkpt>
      <trkpt lat="43.63235" lon="1.19844">
        <ele>233.586243</ele>
        <time>2013-04-24T19:22:24Z</time>
      </trkpt>
      <trkpt lat="43.63255" lon="1.19844">
        <ele>233.591248</ele>
        <time>2013-04-24T19:22:29Z</time>
      </trkpt>
      <trkpt lat="43.63288" lon="1.19826">
        <ele>233.397522</ele>
        <time>2013-04-24T19:22:36Z</time>
      </trkpt>
      <trkpt lat="43.633" lon="1.19816">
        <ele>233.487213</ele>
        <time>2013-04-24T19:22:39Z</time>
      </trkpt>
      <trkpt lat="43.63314" lon="1.19808">
        <ele>233.702621</ele>
        <time>2013-04-24T19:22:43Z</time>
      </trkpt>
      <trkpt lat="43.63356" lon="1.19775">
        <ele>233.50563</ele>
        <time>2013-04-24T19:22:53Z</time>
      </trkpt>
      <trkpt lat="43.63388" lon="1.19733">
        <ele>233</ele>
        <time>2013-04-24T19:23:01Z</time>
      </trkpt>
      <trkpt lat="43.63403" lon="1.19708">
        <ele>233</ele>
        <time>2013-04-24T19:23:05Z</time>
      </trkpt>
      <trkpt lat="43.63427" lon="1.19685">
        <ele>233</ele>
        <time>2013-04-24T19:23:10Z</time>
      </trkpt>
      <trkpt lat="43.63484" lon="1.19626">
        <ele>232.557999</ele>
        <time>2013-04-24T19:23:22Z</time>
      </trkpt>
      <trkpt lat="43.63534" lon="1.19562">
        <ele>232</ele>
        <time>2013-04-24T19:23:32Z</time>
      </trkpt>
      <trkpt lat="43.6354" lon="1.19556">
        <ele>232</ele>
        <time>2013-04-24T19:23:33Z</time>
      </trkpt>
      <trkpt lat="43.63561" lon="1.19517">
        <ele>232</ele>
        <time>2013-04-24T19:23:38Z</time>
      </trkpt>
      <trkpt lat="43.63584" lon="1.19487">
        <ele>232</ele>
        <time>2013-04-24T19:23:43Z</time>
      </trkpt>
      <trkpt lat="43.63607" lon="1.19473">
        <ele>231.697495</ele>
        <time>2013-04-24T19:23:50Z</time>
      </trkpt>
      <trkpt lat="43.63609" lon="1.19471">
        <ele>231.647507</ele>
        <time>2013-04-24T19:24:08Z</time>
      </trkpt>
      <trkpt lat="43.63615" lon="1.19467">
        <ele>231.529999</ele>
        <time>2013-04-24T19:24:12Z</time>
      </trkpt>
      <trkpt lat="43.6364" lon="1.19459">
        <ele>231</ele>
        <time>2013-04-24T19:24:21Z</time>
      </trkpt>
      <trkpt lat="43.63656" lon="1.19463">
        <ele>231</ele>
        <time>2013-04-24T19:24:25Z</time>
      </trkpt>
      <trkpt lat="43.63673" lon="1.19468">
        <ele>231</ele>
        <time>2013-04-24T19:24:29Z</time>
      </trkpt>
      <trkpt lat="43.63681" lon="1.19473">
        <ele>231</ele>
        <time>2013-04-24T19:24:31Z</time>
      </trkpt>
      <trkpt lat="43.63697" lon="1.1949">
        <ele>231</ele>
        <time>2013-04-24T19:24:35Z</time>
      </trkpt>
      <trkpt lat="43.63708" lon="1.19506">
        <ele>231</ele>
        <time>2013-04-24T19:24:38Z</time>
      </trkpt>
      <trkpt lat="43.6374" lon="1.19548">
        <ele>230.992355</ele>
        <time>2013-04-24T19:24:46Z</time>
      </trkpt>
      <trkpt lat="43.63765" lon="1.19599">
        <ele>231</ele>
        <time>2013-04-24T19:24:54Z</time>
      </trkpt>
      <trkpt lat="43.63772" lon="1.19611">
        <ele>231</ele>
        <time>2013-04-24T19:24:56Z</time>
      </trkpt>
      <trkpt lat="43.63784" lon="1.1965">
        <ele>231.508087</ele>
        <time>2013-04-24T19:25:01Z</time>
      </trkpt>
      <trkpt lat="43.63797" lon="1.19685">
        <ele>231.613098</ele>
        <time>2013-04-24T19:25:07Z</time>
      </trkpt>
      <trkpt lat="43.63804" lon="1.19696">
        <ele>231.613281</ele>
        <time>2013-04-24T19:25:09Z</time>
      </trkpt>
      <trkpt lat="43.63802" lon="1.19742">
        <ele>232</ele>
        <time>2013-04-24T19:25:16Z</time>
      </trkpt>
      <trkpt lat="43.63809" lon="1.19748">
        <ele>232</ele>
        <time>2013-04-24T19:25:18Z</time>
      </trkpt>
      <trkpt lat="43.63839" lon="1.19761">
        <ele>231.772583</ele>
        <time>2013-04-24T19:25:24Z</time>
      </trkpt>
      <trkpt lat="43.63857" lon="1.19776">
        <ele>231.756271</ele>
        <time>2013-04-24T19:25:31Z</time>
      </trkpt>
      <trkpt lat="43.63865" lon="1.19781">
        <ele>231.788757</ele>
        <time>2013-04-24T19:25:43Z</time>
      </trkpt>
      <trkpt lat="43.63865" lon="1.19781">
        <ele>231.780502</ele>
        <time>2013-04-24T19:25:55Z</time>
      </trkpt>
      <trkpt lat="43.6387" lon="1.19788">
        <ele>231.88269</ele>
        <time>2013-04-24T19:25:58Z</time>
      </trkpt>
      <trkpt lat="43.63877" lon="1.19799">
        <ele>232.064377</ele>
        <time>2013-04-24T19:26:00Z</time>
      </trkpt>
      <trkpt lat="43.63906" lon="1.19845">
        <ele>232.818756</ele>
        <time>2013-04-24T19:26:11Z</time>
      </trkpt>
      <trkpt lat="43.63912" lon="1.19843">
        <ele>232.788132</ele>
        <time>2013-04-24T19:26:16Z</time>
      </trkpt>
      <trkpt lat="43.63915" lon="1.19835">
        <ele>232.591873</ele>
        <time>2013-04-24T19:26:18Z</time>
      </trkpt>
      <trkpt lat="43.63925" lon="1.19805">
        <ele>231.897507</ele>
        <time>2013-04-24T19:26:23Z</time>
      </trkpt>
      <trkpt lat="43.63929" lon="1.1978">
        <ele>231.154999</ele>
        <time>2013-04-24T19:26:27Z</time>
      </trkpt>
      <trkpt lat="43.63939" lon="1.19751">
        <ele>230.014999</ele>
        <time>2013-04-24T19:26:34Z</time>
      </trkpt>
      <trkpt lat="43.63939" lon="1.1975">
        <ele>229.970001</ele>
        <time>2013-04-24T19:26:35Z</time>
      </trkpt>
      <trkpt lat="43.63936" lon="1.19741">
        <ele>229.731247</ele>
        <time>2013-04-24T19:26:39Z</time>
      </trkpt>
      <trkpt lat="43.63935" lon="1.19703">
        <ele>229.455002</ele>
        <time>2013-04-24T19:26:48Z</time>
      </trkpt>
      <trkpt lat="43.63931" lon="1.19681">
        <ele>229.529999</ele>
        <time>2013-04-24T19:26:54Z</time>
      </trkpt>
      <trkpt lat="43.63929" lon="1.19651">
        <ele>229.410233</ele>
        <time>2013-04-24T19:27:04Z</time>
      </trkpt>
      <trkpt lat="43.63928" lon="1.1965">
        <ele>229.412521</ele>
        <time>2013-04-24T19:27:56Z</time>
      </trkpt>
      <trkpt lat="43.63928" lon="1.1965">
        <ele>229.412521</ele>
        <time>2013-04-24T19:27:57Z</time>
      </trkpt>
      <trkpt lat="43.63933" lon="1.19621">
        <ele>229.102768</ele>
        <time>2013-04-24T19:28:06Z</time>
      </trkpt>
      <trkpt lat="43.63936" lon="1.19611">
        <ele>229.019592</ele>
        <time>2013-04-24T19:28:08Z</time>
      </trkpt>
      <trkpt lat="43.63943" lon="1.19594">
        <ele>229</ele>
        <time>2013-04-24T19:28:11Z</time>
      </trkpt>
      <trkpt lat="43.63953" lon="1.19576">
        <ele>229</ele>
        <time>2013-04-24T19:28:14Z</time>
      </trkpt>
      <trkpt lat="43.6396" lon="1.1953">
        <ele>229.03363</ele>
        <time>2013-04-24T19:28:22Z</time>
      </trkpt>
      <trkpt lat="43.63963" lon="1.19506">
        <ele>229.133224</ele>
        <time>2013-04-24T19:28:27Z</time>
      </trkpt>
      <trkpt lat="43.63965" lon="1.19503">
        <ele>229.176468</ele>
        <time>2013-04-24T19:28:29Z</time>
      </trkpt>
      <trkpt lat="43.63974" lon="1.19485">
        <ele>229.444626</ele>
        <time>2013-04-24T19:28:36Z</time>
      </trkpt>
      <trkpt lat="43.63981" lon="1.19465">
        <ele>229.725113</ele>
        <time>2013-04-24T19:28:42Z</time>
      </trkpt>
      <trkpt lat="43.6399" lon="1.19418">
        <ele>230</ele>
        <time>2013-04-24T19:28:55Z</time>
      </trkpt>
      <trkpt lat="43.6403" lon="1.19358">
        <ele>230.735657</ele>
        <time>2013-04-24T19:29:10Z</time>
      </trkpt>
      <trkpt lat="43.64039" lon="1.19347">
        <ele>230.945328</ele>
        <time>2013-04-24T19:29:13Z</time>
      </trkpt>
      <trkpt lat="43.64055" lon="1.19326">
        <ele>231</ele>
        <time>2013-04-24T19:29:18Z</time>
      </trkpt>
      <trkpt lat="43.64066" lon="1.19312">
        <ele>231</ele>
        <time>2013-04-24T19:29:21Z</time>
      </trkpt>
      <trkpt lat="43.64091" lon="1.19283">
        <ele>231.281754</ele>
        <time>2013-04-24T19:29:27Z</time>
      </trkpt>
      <trkpt lat="43.641" lon="1.19275">
        <ele>231.536453</ele>
        <time>2013-04-24T19:29:29Z</time>
      </trkpt>
      <trkpt lat="43.64107" lon="1.19264">
        <ele>231.733414</ele>
        <time>2013-04-24T19:29:31Z</time>
      </trkpt>
      <trkpt lat="43.64124" lon="1.19246">
        <ele>231.969208</ele>
        <time>2013-04-24T19:29:35Z</time>
      </trkpt>
      <trkpt lat="43.6415" lon="1.19217">
        <ele>231.888336</ele>
        <time>2013-04-24T19:29:41Z</time>
      </trkpt>
      <trkpt lat="43.64168" lon="1.192">
        <ele>231.562668</ele>
        <time>2013-04-24T19:29:46Z</time>
      </trkpt>
      <trkpt lat="43.64222" lon="1.19137">
        <ele>230.998199</ele>
        <time>2013-04-24T19:29:59Z</time>
      </trkpt>
      <trkpt lat="43.6424" lon="1.19115">
        <ele>230.659973</ele>
        <time>2013-04-24T19:30:03Z</time>
      </trkpt>
      <trkpt lat="43.6426" lon="1.19103">
        <ele>229.97995</ele>
        <time>2013-04-24T19:30:07Z</time>
      </trkpt>
      <trkpt lat="43.64364" lon="1.19102">
        <ele>231.977203</ele>
        <time>2013-04-24T19:30:23Z</time>
      </trkpt>
      <trkpt lat="43.6446" lon="1.19083">
        <ele>232.202011</ele>
        <time>2013-04-24T19:30:38Z</time>
      </trkpt>
      <trkpt lat="43.64528" lon="1.19075">
        <ele>231.482132</ele>
        <time>2013-04-24T19:30:51Z</time>
      </trkpt>
      <trkpt lat="43.64533" lon="1.19075">
        <ele>231.430756</ele>
        <time>2013-04-24T19:30:52Z</time>
      </trkpt>
      <trkpt lat="43.64541" lon="1.19075">
        <ele>231.34079</ele>
        <time>2013-04-24T19:30:54Z</time>
      </trkpt>
      <trkpt lat="43.64595" lon="1.19064">
        <ele>231</ele>
        <time>2013-04-24T19:31:06Z</time>
      </trkpt>
      <trkpt lat="43.64608" lon="1.19059">
        <ele>231</ele>
        <time>2013-04-24T19:31:09Z</time>
      </trkpt>
      <trkpt lat="43.64626" lon="1.19054">
        <ele>231</ele>
        <time>2013-04-24T19:31:13Z</time>
      </trkpt>
      <trkpt lat="43.64705" lon="1.1903">
        <ele>231</ele>
        <time>2013-04-24T19:31:29Z</time>
      </trkpt>
      <trkpt lat="43.64792" lon="1.19015">
        <ele>231</ele>
        <time>2013-04-24T19:31:44Z</time>
      </trkpt>
      <trkpt lat="43.64866" lon="1.18994">
        <ele>229.572495</ele>
        <time>2013-04-24T19:31:57Z</time>
      </trkpt>
      <trkpt lat="43.64944" lon="1.18996">
        <ele>227.686981</ele>
        <time>2013-04-24T19:32:09Z</time>
      </trkpt>
      <trkpt lat="43.64992" lon="1.18971">
        <ele>226.397232</ele>
        <time>2013-04-24T19:32:17Z</time>
      </trkpt>
      <trkpt lat="43.65082" lon="1.18969">
        <ele>223.8302</ele>
        <time>2013-04-24T19:32:31Z</time>
      </trkpt>
      <trkpt lat="43.6512" lon="1.1897">
        <ele>224.425003</ele>
        <time>2013-04-24T19:32:37Z</time>
      </trkpt>
      <trkpt lat="43.65131" lon="1.18973">
        <ele>224.352493</ele>
        <time>2013-04-24T19:32:39Z</time>
      </trkpt>
      <trkpt lat="43.65144" lon="1.18978">
        <ele>223.914993</ele>
        <time>2013-04-24T19:32:42Z</time>
      </trkpt>
      <trkpt lat="43.65184" lon="1.18995">
        <ele>222.968735</ele>
        <time>2013-04-24T19:32:52Z</time>
      </trkpt>
      <trkpt lat="43.65206" lon="1.19002">
        <ele>223.195602</ele>
        <time>2013-04-24T19:32:57Z</time>
      </trkpt>
      <trkpt lat="43.65281" lon="1.19009">
        <ele>221.303604</ele>
        <time>2013-04-24T19:33:13Z</time>
      </trkpt>
      <trkpt lat="43.6535" lon="1.19027">
        <ele>215.551376</ele>
        <time>2013-04-24T19:33:22Z</time>
      </trkpt>
      <trkpt lat="43.65448" lon="1.19054">
        <ele>202.986328</ele>
        <time>2013-04-24T19:33:30Z</time>
      </trkpt>
      <trkpt lat="43.65634" lon="1.19115">
        <ele>183.833771</ele>
        <time>2013-04-24T19:33:43Z</time>
      </trkpt>
      <trkpt lat="43.65667" lon="1.1913">
        <ele>181.534988</ele>
        <time>2013-04-24T19:33:47Z</time>
      </trkpt>
      <trkpt lat="43.65685" lon="1.19129">
        <ele>181.389221</ele>
        <time>2013-04-24T19:33:52Z</time>
      </trkpt>
      <trkpt lat="43.65688" lon="1.19118">
        <ele>181.688782</ele>
        <time>2013-04-24T19:34:04Z</time>
      </trkpt>
    </trkseg>
  </trk>
</gpx>